TAM8180 SBGR-KJFK
Flight info
| Callsign | TAM8180 |
|---|---|
| Flight time | N/A |
| Altitude | 32000 |
| Route | GERTU UM423 GIBKO/N0496F340 UM423 UTNOD/N0487F360 UM423 KIKER M423 PLING/N0481F350 M423 LENNT/N0481F360 L455 KINCH/M082F360 L455 SAVIK/N0477F360 Y486 MOUGH Y495 CAMRN CAMRN5 |
| Aircraft | B77W/H-SDE1E2E3FGHIJ2J3J4J5M1RWXYZ/LB1D1 |
Departure
| Time | N/A |
|---|---|
| Airport | São Paulo/Guarulhos–Governor André Franco Montoro International Airport (SBGR) |
Arrival
| Time | 2026-05-04 03:58 |
|---|---|
| Airport | John F. Kennedy International Airport (KJFK) |
| Time | Latitude | Longitude | Altitude | Speed | Heading |
|---|---|---|---|---|---|
| 2026-05-03 20:15 | -16.75123 | -50.69514 | 33961 ft | 490 kts | 330° |
| 2026-05-03 20:15 | -16.69051 | -50.72733 | 33964 ft | 490 kts | 330° |
| 2026-05-03 20:16 | -16.62971 | -50.75954 | 33947 ft | 490 kts | 330° |
| 2026-05-03 20:16 | -16.56924 | -50.79154 | 33952 ft | 491 kts | 330° |
| 2026-05-03 20:17 | -16.50834 | -50.82374 | 33953 ft | 491 kts | 330° |
| 2026-05-03 20:17 | -16.44735 | -50.85599 | 33948 ft | 492 kts | 330° |
| 2026-05-03 20:18 | -16.38631 | -50.88823 | 33946 ft | 492 kts | 330° |
| 2026-05-03 20:18 | -16.32529 | -50.92043 | 33940 ft | 492 kts | 330° |
| 2026-05-03 20:19 | -16.26474 | -50.95237 | 33941 ft | 491 kts | 330° |
| 2026-05-03 20:19 | -16.20375 | -50.98451 | 33937 ft | 491 kts | 330° |
| 2026-05-03 20:20 | -16.14275 | -51.01664 | 33932 ft | 491 kts | 330° |
| 2026-05-03 20:20 | -16.08188 | -51.04868 | 33929 ft | 490 kts | 330° |
| 2026-05-03 20:21 | -16.02105 | -51.08068 | 33928 ft | 490 kts | 331° |
| 2026-05-03 20:21 | -15.96059 | -51.11246 | 33926 ft | 490 kts | 331° |
| 2026-05-03 20:22 | -15.89974 | -51.14442 | 33926 ft | 490 kts | 331° |
| 2026-05-03 20:22 | -15.83882 | -51.17640 | 33925 ft | 490 kts | 331° |
| 2026-05-03 20:23 | -15.77790 | -51.20835 | 33917 ft | 491 kts | 331° |
| 2026-05-03 20:23 | -15.71737 | -51.24008 | 33918 ft | 491 kts | 331° |
| 2026-05-03 20:24 | -15.65638 | -51.27203 | 33909 ft | 491 kts | 331° |
| 2026-05-03 20:24 | -15.59541 | -51.30395 | 33915 ft | 491 kts | 331° |
| 2026-05-03 20:25 | -15.53441 | -51.33586 | 33917 ft | 491 kts | 331° |
| 2026-05-03 20:25 | -15.47381 | -51.36754 | 33912 ft | 491 kts | 331° |
| 2026-05-03 20:26 | -15.41273 | -51.39945 | 33907 ft | 491 kts | 331° |
| 2026-05-03 20:26 | -15.35168 | -51.43133 | 33911 ft | 492 kts | 331° |
| 2026-05-03 20:27 | -15.29058 | -51.46321 | 33909 ft | 492 kts | 331° |
| 2026-05-03 20:27 | -15.22978 | -51.49491 | 33908 ft | 492 kts | 331° |
| 2026-05-03 20:28 | -15.16860 | -51.52680 | 33902 ft | 493 kts | 331° |
| 2026-05-03 20:28 | -15.10739 | -51.55869 | 33911 ft | 493 kts | 331° |
| 2026-05-03 20:29 | -15.04602 | -51.59046 | 33904 ft | 493 kts | 332° |
| 2026-05-03 20:29 | -14.98442 | -51.62170 | 33908 ft | 493 kts | 332° |
| 2026-05-03 20:30 | -14.92314 | -51.65268 | 33909 ft | 493 kts | 332° |
| 2026-05-03 20:30 | -14.86148 | -51.68391 | 33907 ft | 493 kts | 332° |
| 2026-05-03 20:31 | -14.79994 | -51.71513 | 33904 ft | 493 kts | 332° |
| 2026-05-03 20:31 | -14.73832 | -51.74637 | 33904 ft | 493 kts | 332° |
| 2026-05-03 20:32 | -14.67716 | -51.77735 | 33909 ft | 493 kts | 332° |
| 2026-05-03 20:32 | -14.61556 | -51.80854 | 33905 ft | 493 kts | 332° |
| 2026-05-03 20:33 | -14.55394 | -51.83971 | 33905 ft | 493 kts | 332° |
| 2026-05-03 20:33 | -14.49231 | -51.87087 | 33902 ft | 494 kts | 332° |
| 2026-05-03 20:34 | -14.43101 | -51.90185 | 33902 ft | 494 kts | 332° |
| 2026-05-03 20:34 | -14.36932 | -51.93301 | 33902 ft | 494 kts | 332° |
| 2026-05-03 20:35 | -14.30759 | -51.96416 | 33900 ft | 494 kts | 332° |
| 2026-05-03 20:35 | -14.24578 | -51.99533 | 33907 ft | 494 kts | 332° |
| 2026-05-03 20:36 | -14.18441 | -52.02627 | 33906 ft | 494 kts | 332° |
| 2026-05-03 20:36 | -14.12261 | -52.05741 | 33899 ft | 495 kts | 333° |
| 2026-05-03 20:37 | -14.06076 | -52.08854 | 33906 ft | 495 kts | 333° |
| 2026-05-03 20:37 | -13.99885 | -52.11970 | 33907 ft | 495 kts | 333° |
| 2026-05-03 20:38 | -13.93696 | -52.15082 | 33907 ft | 495 kts | 333° |
| 2026-05-03 20:38 | -13.87543 | -52.18175 | 33905 ft | 496 kts | 333° |
| 2026-05-03 20:39 | -13.81329 | -52.21250 | 33912 ft | 496 kts | 333° |
| 2026-05-03 20:39 | -13.75092 | -52.24290 | 33908 ft | 496 kts | 333° |
| 2026-05-03 20:40 | -13.68856 | -52.27342 | 33911 ft | 496 kts | 333° |
| 2026-05-03 20:40 | -13.62688 | -52.30408 | 33908 ft | 496 kts | 333° |
| 2026-05-03 20:41 | -13.56510 | -52.33582 | 33913 ft | 496 kts | 332° |
| 2026-05-03 20:41 | -13.50335 | -52.36756 | 33912 ft | 497 kts | 333° |
| 2026-05-03 20:42 | -13.44143 | -52.39920 | 33910 ft | 497 kts | 333° |
| 2026-05-03 20:42 | -13.37953 | -52.43076 | 33910 ft | 497 kts | 333° |
| 2026-05-03 20:43 | -13.31800 | -52.46213 | 33912 ft | 497 kts | 333° |
| 2026-05-03 20:43 | -13.25612 | -52.49366 | 33909 ft | 496 kts | 333° |
| 2026-05-03 20:44 | -13.19426 | -52.52516 | 33906 ft | 496 kts | 333° |
| 2026-05-03 20:44 | -13.13247 | -52.55663 | 33905 ft | 496 kts | 333° |
| 2026-05-03 20:45 | -13.07106 | -52.58789 | 33904 ft | 496 kts | 333° |
| 2026-05-03 20:45 | -13.00928 | -52.61932 | 33900 ft | 496 kts | 333° |
| 2026-05-03 20:46 | -12.94745 | -52.65076 | 33901 ft | 496 kts | 333° |
| 2026-05-03 20:46 | -12.88567 | -52.68216 | 33898 ft | 496 kts | 333° |
| 2026-05-03 20:47 | -12.82429 | -52.71333 | 33899 ft | 495 kts | 333° |
| 2026-05-03 20:47 | -12.76260 | -52.74464 | 33891 ft | 495 kts | 333° |
| 2026-05-03 20:48 | -12.70095 | -52.77592 | 33891 ft | 494 kts | 333° |
| 2026-05-03 20:48 | -12.63937 | -52.80715 | 33893 ft | 494 kts | 333° |
| 2026-05-03 20:49 | -12.57822 | -52.83814 | 33892 ft | 494 kts | 333° |
| 2026-05-03 20:49 | -12.51668 | -52.86932 | 33887 ft | 494 kts | 333° |
| 2026-05-03 20:50 | -12.45510 | -52.90049 | 33889 ft | 493 kts | 333° |
| 2026-05-03 20:50 | -12.39355 | -52.93164 | 33888 ft | 493 kts | 333° |
| 2026-05-03 20:51 | -12.33244 | -52.96255 | 33887 ft | 493 kts | 333° |
| 2026-05-03 20:51 | -12.27085 | -52.99369 | 33890 ft | 494 kts | 333° |
| 2026-05-03 20:52 | -12.20926 | -53.02482 | 33886 ft | 494 kts | 333° |
| 2026-05-03 20:52 | -12.14766 | -53.05588 | 33888 ft | 494 kts | 333° |
| 2026-05-03 20:53 | -12.08597 | -53.08694 | 33883 ft | 494 kts | 333° |
| 2026-05-03 20:53 | -12.02471 | -53.11777 | 33880 ft | 494 kts | 333° |
| 2026-05-03 20:54 | -11.96304 | -53.14881 | 33881 ft | 494 kts | 333° |
| 2026-05-03 20:54 | -11.87052 | -53.19535 | 33882 ft | 494 kts | 333° |
| 2026-05-03 20:55 | -11.80927 | -53.22614 | 33884 ft | 494 kts | 333° |
| 2026-05-03 20:55 | -11.74772 | -53.25707 | 33881 ft | 494 kts | 333° |
| 2026-05-03 20:56 | -11.68607 | -53.28803 | 33885 ft | 494 kts | 333° |
| 2026-05-03 20:56 | -11.62439 | -53.31899 | 33885 ft | 494 kts | 333° |
| 2026-05-03 20:57 | -11.56272 | -53.34993 | 33886 ft | 494 kts | 333° |
| 2026-05-03 20:57 | -11.50137 | -53.38070 | 33885 ft | 495 kts | 333° |
| 2026-05-03 20:58 | -11.43958 | -53.41167 | 33886 ft | 495 kts | 333° |
| 2026-05-03 20:58 | -11.37773 | -53.44265 | 33884 ft | 495 kts | 333° |
| 2026-05-03 20:59 | -11.31587 | -53.47363 | 33885 ft | 495 kts | 333° |
| 2026-05-03 20:59 | -11.25445 | -53.50437 | 33887 ft | 495 kts | 333° |
| 2026-05-03 21:00 | -11.21311 | -53.52506 | 33887 ft | 495 kts | 333° |
| 2026-05-03 21:00 | -11.13076 | -53.56624 | 33889 ft | 495 kts | 333° |
| 2026-05-03 21:01 | -11.06889 | -53.59715 | 33886 ft | 496 kts | 333° |
| 2026-05-03 21:01 | -11.00737 | -53.62789 | 33884 ft | 496 kts | 333° |
| 2026-05-03 21:02 | -10.94544 | -53.65882 | 33886 ft | 496 kts | 333° |
| 2026-05-03 21:02 | -10.88352 | -53.68973 | 33885 ft | 496 kts | 333° |
| 2026-05-03 21:03 | -10.82150 | -53.72066 | 33885 ft | 496 kts | 333° |
| 2026-05-03 21:03 | -10.75993 | -53.75134 | 33884 ft | 497 kts | 333° |
| 2026-05-03 21:04 | -10.69784 | -53.78228 | 33889 ft | 497 kts | 333° |
| 2026-05-03 21:04 | -10.63573 | -53.81323 | 33889 ft | 497 kts | 333° |
| 2026-05-03 21:05 | -10.57362 | -53.84415 | 33885 ft | 497 kts | 333° |
| 2026-05-03 21:05 | -10.51144 | -53.87510 | 33888 ft | 497 kts | 333° |
| 2026-05-03 21:06 | -10.44971 | -53.90581 | 33886 ft | 498 kts | 333° |
| 2026-05-03 21:06 | -10.38754 | -53.93673 | 33884 ft | 498 kts | 333° |
| 2026-05-03 21:07 | -10.32534 | -53.96765 | 33884 ft | 498 kts | 333° |
| 2026-05-03 21:07 | -10.26315 | -53.99855 | 33882 ft | 497 kts | 333° |
| 2026-05-03 21:08 | -10.20136 | -54.02923 | 33887 ft | 497 kts | 333° |
| 2026-05-03 21:08 | -10.13918 | -54.06012 | 33888 ft | 498 kts | 333° |
| 2026-05-03 21:09 | -10.08749 | -54.08577 | 33884 ft | 498 kts | 333° |
| 2026-05-03 21:09 | -10.02523 | -54.11663 | 33888 ft | 498 kts | 333° |
| 2026-05-03 21:10 | -9.95294 | -54.15249 | 33888 ft | 498 kts | 333° |
| 2026-05-03 21:10 | -9.89096 | -54.18393 | 33888 ft | 498 kts | 332° |
| 2026-05-03 21:11 | -9.82913 | -54.21553 | 33885 ft | 498 kts | 332° |
| 2026-05-03 21:11 | -9.77775 | -54.24172 | 33888 ft | 497 kts | 332° |
| 2026-05-03 21:12 | -9.70590 | -54.27823 | 33885 ft | 496 kts | 332° |
| 2026-05-03 21:12 | -9.64419 | -54.30956 | 33887 ft | 496 kts | 332° |
| 2026-05-03 21:13 | -9.59301 | -54.33554 | 33887 ft | 495 kts | 332° |
| 2026-05-03 21:13 | -9.53151 | -54.36676 | 33886 ft | 495 kts | 332° |
| 2026-05-03 21:14 | -9.46997 | -54.39798 | 33892 ft | 494 kts | 332° |
| 2026-05-03 21:14 | -9.39850 | -54.43422 | 33890 ft | 494 kts | 332° |
| 2026-05-03 21:15 | -9.34739 | -54.46012 | 33897 ft | 495 kts | 332° |
| 2026-05-03 21:15 | -9.28579 | -54.49134 | 33896 ft | 495 kts | 332° |
| 2026-05-03 21:16 | -9.22424 | -54.52252 | 33906 ft | 494 kts | 332° |
| 2026-05-03 21:16 | -9.16274 | -54.55366 | 33898 ft | 494 kts | 332° |
| 2026-05-03 21:17 | -9.10132 | -54.58468 | 33896 ft | 493 kts | 332° |
| 2026-05-03 21:17 | -9.04048 | -54.61539 | 33897 ft | 492 kts | 332° |
| 2026-05-03 21:18 | -8.97931 | -54.64627 | 33904 ft | 491 kts | 332° |
| 2026-05-03 21:18 | -8.91817 | -54.67713 | 33903 ft | 491 kts | 332° |
| 2026-05-03 21:19 | -8.85711 | -54.70795 | 33904 ft | 491 kts | 332° |
| 2026-05-03 21:19 | -8.79636 | -54.73859 | 33900 ft | 491 kts | 332° |
| 2026-05-03 21:20 | -8.73521 | -54.76943 | 33898 ft | 491 kts | 332° |
| 2026-05-03 21:20 | -8.67405 | -54.80025 | 33901 ft | 492 kts | 332° |
| 2026-05-03 21:21 | -8.61275 | -54.83113 | 33891 ft | 492 kts | 332° |
| 2026-05-03 21:21 | -8.55183 | -54.86181 | 33891 ft | 493 kts | 332° |
| 2026-05-03 21:22 | -8.49040 | -54.89274 | 33889 ft | 493 kts | 332° |
| 2026-05-03 21:22 | -8.42894 | -54.92367 | 33888 ft | 494 kts | 332° |
| 2026-05-03 21:23 | -8.36742 | -54.95462 | 33887 ft | 494 kts | 332° |
| 2026-05-03 21:23 | -8.30583 | -54.98560 | 33883 ft | 495 kts | 332° |
| 2026-05-03 21:24 | -8.24464 | -55.01636 | 33885 ft | 495 kts | 332° |
| 2026-05-03 21:24 | -8.18296 | -55.04737 | 33884 ft | 495 kts | 332° |
| 2026-05-03 21:25 | -8.12128 | -55.07835 | 33884 ft | 495 kts | 332° |
| 2026-05-03 21:25 | -8.05964 | -55.10931 | 33884 ft | 495 kts | 333° |
| 2026-05-03 21:26 | -7.99794 | -55.14029 | 33886 ft | 496 kts | 333° |
| 2026-05-03 21:26 | -7.93656 | -55.17109 | 33886 ft | 496 kts | 333° |
| 2026-05-03 21:27 | -7.87473 | -55.20212 | 33881 ft | 496 kts | 333° |
| 2026-05-03 21:27 | -7.81291 | -55.23312 | 33883 ft | 496 kts | 333° |
| 2026-05-03 21:28 | -7.75106 | -55.26414 | 33885 ft | 497 kts | 333° |
| 2026-05-03 21:28 | -7.68955 | -55.29497 | 33884 ft | 497 kts | 333° |
| 2026-05-03 21:29 | -7.62769 | -55.32596 | 33885 ft | 497 kts | 333° |
| 2026-05-03 21:29 | -7.56579 | -55.35698 | 33888 ft | 497 kts | 333° |
| 2026-05-03 21:30 | -7.50388 | -55.38798 | 33890 ft | 497 kts | 333° |
| 2026-05-03 21:30 | -7.44241 | -55.41876 | 33889 ft | 497 kts | 333° |
| 2026-05-03 21:31 | -7.38053 | -55.44973 | 33894 ft | 497 kts | 333° |
| 2026-05-03 21:31 | -7.31859 | -55.48070 | 33893 ft | 497 kts | 333° |
| 2026-05-03 21:32 | -7.25673 | -55.51164 | 33897 ft | 497 kts | 333° |
| 2026-05-03 21:32 | -7.19528 | -55.54237 | 33891 ft | 497 kts | 333° |
| 2026-05-03 21:33 | -7.13333 | -55.57335 | 33894 ft | 497 kts | 333° |
| 2026-05-03 21:33 | -7.07132 | -55.60434 | 33898 ft | 498 kts | 333° |
| 2026-05-03 21:34 | -7.00924 | -55.63536 | 33902 ft | 498 kts | 333° |
| 2026-05-03 21:34 | -6.94750 | -55.66620 | 33902 ft | 499 kts | 333° |
| 2026-05-03 21:35 | -6.88540 | -55.69721 | 33909 ft | 498 kts | 333° |
| 2026-05-03 21:35 | -6.82332 | -55.72820 | 33901 ft | 498 kts | 333° |
| 2026-05-03 21:36 | -6.76138 | -55.75911 | 33905 ft | 496 kts | 333° |
| 2026-05-03 21:36 | -6.69999 | -55.78974 | 33902 ft | 495 kts | 333° |
| 2026-05-03 21:37 | -6.63827 | -55.82053 | 33908 ft | 495 kts | 333° |
| 2026-05-03 21:37 | -6.57646 | -55.85135 | 33910 ft | 496 kts | 334° |
| 2026-05-03 21:38 | -6.51463 | -55.88218 | 33913 ft | 497 kts | 333° |
| 2026-05-03 21:38 | -6.45261 | -55.91308 | 33908 ft | 498 kts | 334° |
| 2026-05-03 21:39 | -6.39089 | -55.94384 | 33909 ft | 499 kts | 334° |
| 2026-05-03 21:39 | -6.32875 | -55.97479 | 33911 ft | 499 kts | 334° |
| 2026-05-03 21:40 | -6.26662 | -56.00573 | 33914 ft | 497 kts | 334° |
| 2026-05-03 21:40 | -6.20479 | -56.03652 | 33908 ft | 495 kts | 334° |
| 2026-05-03 21:41 | -6.14360 | -56.06697 | 33906 ft | 493 kts | 334° |
| 2026-05-03 21:41 | -6.08228 | -56.09748 | 33910 ft | 492 kts | 334° |
| 2026-05-03 21:42 | -6.02102 | -56.12795 | 33914 ft | 491 kts | 334° |
| 2026-05-03 21:42 | -5.95971 | -56.15844 | 33907 ft | 492 kts | 334° |
| 2026-05-03 21:43 | -5.89861 | -56.18883 | 33920 ft | 495 kts | 334° |
| 2026-05-03 21:43 | -5.83674 | -56.21957 | 33919 ft | 497 kts | 334° |
| 2026-05-03 21:44 | -5.77466 | -56.25043 | 33912 ft | 499 kts | 334° |
| 2026-05-03 21:44 | -5.71240 | -56.28137 | 33912 ft | 500 kts | 334° |
| 2026-05-03 21:45 | -5.65008 | -56.31232 | 33901 ft | 500 kts | 334° |
| 2026-05-03 21:45 | -5.58803 | -56.34314 | 33911 ft | 501 kts | 335° |
| 2026-05-03 21:46 | -5.52559 | -56.37413 | 33906 ft | 501 kts | 334° |
| 2026-05-03 21:46 | -5.46315 | -56.40513 | 33910 ft | 501 kts | 335° |
| 2026-05-03 21:47 | -5.40066 | -56.43613 | 33907 ft | 501 kts | 335° |
| 2026-05-03 21:47 | -5.33868 | -56.46689 | 33911 ft | 500 kts | 335° |
| 2026-05-03 21:48 | -5.27626 | -56.49785 | 33911 ft | 500 kts | 335° |
| 2026-05-03 21:48 | -5.21394 | -56.52876 | 33909 ft | 500 kts | 335° |
| 2026-05-03 21:49 | -5.15160 | -56.55966 | 33913 ft | 500 kts | 335° |
| 2026-05-03 21:49 | -5.08932 | -56.59054 | 33913 ft | 499 kts | 335° |
| 2026-05-03 21:50 | -5.02746 | -56.62120 | 33913 ft | 499 kts | 335° |
| 2026-05-03 21:50 | -4.96528 | -56.65200 | 33912 ft | 498 kts | 335° |
| 2026-05-03 21:51 | -4.90313 | -56.68279 | 33920 ft | 498 kts | 335° |
| 2026-05-03 21:51 | -4.84105 | -56.71354 | 33911 ft | 498 kts | 335° |
| 2026-05-03 21:52 | -4.77934 | -56.74410 | 33916 ft | 498 kts | 335° |
| 2026-05-03 21:52 | -4.71724 | -56.77484 | 33914 ft | 498 kts | 335° |
| 2026-05-03 21:53 | -4.65507 | -56.80562 | 33918 ft | 498 kts | 335° |
| 2026-05-03 21:53 | -4.59292 | -56.83639 | 33921 ft | 499 kts | 335° |
| 2026-05-03 21:54 | -4.53066 | -56.86720 | 33918 ft | 499 kts | 335° |
| 2026-05-03 21:54 | -4.46884 | -56.89775 | 33915 ft | 499 kts | 335° |
| 2026-05-03 21:55 | -4.40648 | -56.92856 | 33921 ft | 500 kts | 335° |
| 2026-05-03 21:55 | -4.34412 | -56.95938 | 33922 ft | 500 kts | 335° |
| 2026-05-03 21:56 | -4.28211 | -56.99003 | 33923 ft | 501 kts | 335° |
| 2026-05-03 21:56 | -4.21963 | -57.02090 | 33925 ft | 501 kts | 335° |
| 2026-05-03 21:57 | -4.15708 | -57.05180 | 33924 ft | 501 kts | 335° |
| 2026-05-03 21:57 | -4.09461 | -57.08265 | 33923 ft | 501 kts | 335° |
| 2026-05-03 21:58 | -4.03256 | -57.11330 | 33923 ft | 500 kts | 335° |
| 2026-05-03 21:58 | -3.97022 | -57.14408 | 33925 ft | 500 kts | 335° |
| 2026-05-03 21:59 | -3.90786 | -57.17487 | 33927 ft | 499 kts | 335° |
| 2026-05-03 21:59 | -3.84560 | -57.20560 | 33931 ft | 499 kts | 335° |
| 2026-05-03 22:00 | -3.78363 | -57.23618 | 33936 ft | 500 kts | 335° |
| 2026-05-03 22:00 | -3.72120 | -57.26700 | 33937 ft | 501 kts | 335° |
| 2026-05-03 22:01 | -3.65854 | -57.29792 | 33935 ft | 502 kts | 335° |
| 2026-05-03 22:01 | -3.59573 | -57.32888 | 33932 ft | 503 kts | 335° |
| 2026-05-03 22:02 | -3.53329 | -57.35959 | 33936 ft | 504 kts | 335° |
| 2026-05-03 22:02 | -3.47034 | -57.39055 | 33934 ft | 504 kts | 335° |
| 2026-05-03 22:03 | -3.40745 | -57.42148 | 33930 ft | 504 kts | 335° |
| 2026-05-03 22:03 | -3.34455 | -57.45243 | 33931 ft | 503 kts | 335° |
| 2026-05-03 22:04 | -3.28216 | -57.48312 | 33936 ft | 503 kts | 335° |
| 2026-05-03 22:04 | -3.21939 | -57.51399 | 33942 ft | 503 kts | 335° |
| 2026-05-03 22:05 | -3.15654 | -57.54490 | 33930 ft | 503 kts | 335° |
| 2026-05-03 22:05 | -3.09367 | -57.57581 | 33934 ft | 504 kts | 334° |
| 2026-05-03 22:06 | -3.03110 | -57.60658 | 33935 ft | 505 kts | 335° |
| 2026-05-03 22:06 | -2.96809 | -57.63757 | 33934 ft | 505 kts | 334° |
| 2026-05-03 22:07 | -2.90499 | -57.66861 | 33937 ft | 505 kts | 335° |
| 2026-05-03 22:07 | -2.84193 | -57.69963 | 33933 ft | 505 kts | 334° |
| 2026-05-03 22:08 | -2.77922 | -57.73047 | 33935 ft | 505 kts | 334° |
| 2026-05-03 22:08 | -2.71614 | -57.76149 | 33934 ft | 505 kts | 334° |
| 2026-05-03 22:09 | -2.65307 | -57.79254 | 33934 ft | 505 kts | 334° |
| 2026-05-03 22:10 | -2.55845 | -57.83913 | 33940 ft | 505 kts | 334° |
| 2026-05-03 22:10 | -2.49588 | -57.86993 | 33935 ft | 505 kts | 334° |
| 2026-05-03 22:11 | -2.43290 | -57.90093 | 33937 ft | 504 kts | 334° |
| 2026-05-03 22:11 | -2.37004 | -57.93187 | 33936 ft | 504 kts | 335° |
| 2026-05-03 22:12 | -2.30758 | -57.96261 | 33941 ft | 503 kts | 335° |
| 2026-05-03 22:12 | -2.24474 | -57.99352 | 33939 ft | 503 kts | 335° |
| 2026-05-03 22:13 | -2.18191 | -58.02443 | 33944 ft | 504 kts | 335° |
| 2026-05-03 22:13 | -2.11899 | -58.05539 | 33942 ft | 504 kts | 335° |
| 2026-05-03 22:14 | -2.05608 | -58.08633 | 33946 ft | 504 kts | 335° |
| 2026-05-03 22:14 | -1.99350 | -58.11711 | 33945 ft | 504 kts | 335° |
| 2026-05-03 22:15 | -1.93047 | -58.14811 | 33942 ft | 505 kts | 335° |
| 2026-05-03 22:15 | -1.86744 | -58.17911 | 33946 ft | 505 kts | 335° |
| 2026-05-03 22:16 | -1.80432 | -58.21016 | 33951 ft | 505 kts | 335° |
| 2026-05-03 22:16 | -1.74171 | -58.24094 | 33947 ft | 505 kts | 335° |
| 2026-05-03 22:17 | -1.67862 | -58.27196 | 33951 ft | 505 kts | 335° |
| 2026-05-03 22:17 | -1.61563 | -58.30293 | 33949 ft | 504 kts | 334° |
| 2026-05-03 22:18 | -1.55263 | -58.33390 | 33954 ft | 504 kts | 334° |
| 2026-05-03 22:18 | -1.49013 | -58.36462 | 33952 ft | 504 kts | 334° |
| 2026-05-03 22:19 | -1.42725 | -58.39554 | 33953 ft | 504 kts | 334° |
| 2026-05-03 22:19 | -1.36431 | -58.42647 | 33954 ft | 504 kts | 334° |
| 2026-05-03 22:20 | -1.30143 | -58.45738 | 33956 ft | 504 kts | 334° |
| 2026-05-03 22:20 | -1.23875 | -58.48818 | 33954 ft | 506 kts | 335° |
| 2026-05-03 22:21 | -1.17536 | -58.51933 | 33963 ft | 509 kts | 335° |
| 2026-05-03 22:21 | -1.11162 | -58.55065 | 33962 ft | 512 kts | 335° |
| 2026-05-03 22:22 | -1.04803 | -58.58190 | 33958 ft | 513 kts | 335° |
| 2026-05-03 22:22 | -0.98394 | -58.61339 | 33955 ft | 514 kts | 335° |
| 2026-05-03 22:23 | -0.91986 | -58.64488 | 33955 ft | 513 kts | 335° |
| 2026-05-03 22:23 | -0.85597 | -58.67627 | 33952 ft | 511 kts | 335° |
| 2026-05-03 22:24 | -0.79260 | -58.70741 | 33954 ft | 510 kts | 335° |
| 2026-05-03 22:24 | -0.72901 | -58.73865 | 33956 ft | 509 kts | 335° |
| 2026-05-03 22:25 | -0.66549 | -58.76986 | 33953 ft | 508 kts | 335° |
| 2026-05-03 22:25 | -0.60205 | -58.80102 | 33963 ft | 507 kts | 334° |
| 2026-05-03 22:26 | -0.53875 | -58.83213 | 33951 ft | 507 kts | 334° |
| 2026-05-03 22:26 | -0.47592 | -58.86299 | 33951 ft | 507 kts | 334° |
| 2026-05-03 22:27 | -0.41267 | -58.89407 | 33954 ft | 506 kts | 334° |
| 2026-05-03 22:27 | -0.34947 | -58.92512 | 33954 ft | 506 kts | 334° |
| 2026-05-03 22:28 | -0.28663 | -58.95599 | 33955 ft | 507 kts | 334° |
| 2026-05-03 22:28 | -0.22335 | -58.98700 | 33957 ft | 507 kts | 334° |
| 2026-05-03 22:29 | -0.15999 | -59.01807 | 33953 ft | 507 kts | 334° |
| 2026-05-03 22:29 | -0.09667 | -59.04912 | 33960 ft | 507 kts | 335° |
| 2026-05-03 22:30 | -0.03374 | -59.07998 | 33951 ft | 507 kts | 335° |
| 2026-05-03 22:30 | 0.02949 | -59.11100 | 33951 ft | 506 kts | 334° |
| 2026-05-03 22:31 | 0.09272 | -59.14202 | 33953 ft | 506 kts | 334° |
| 2026-05-03 22:31 | 0.15585 | -59.17298 | 33947 ft | 506 kts | 334° |
| 2026-05-03 22:32 | 0.21853 | -59.20372 | 33951 ft | 505 kts | 334° |
| 2026-05-03 22:32 | 0.28168 | -59.23470 | 33945 ft | 505 kts | 334° |
| 2026-05-03 22:33 | 0.34476 | -59.26565 | 33941 ft | 506 kts | 334° |
| 2026-05-03 22:33 | 0.40798 | -59.29666 | 33948 ft | 506 kts | 334° |
| 2026-05-03 22:34 | 0.47086 | -59.32751 | 33944 ft | 508 kts | 334° |
| 2026-05-03 22:34 | 0.53434 | -59.35866 | 33943 ft | 509 kts | 334° |
| 2026-05-03 22:35 | 0.59787 | -59.38983 | 33941 ft | 509 kts | 334° |
| 2026-05-03 22:35 | 0.66151 | -59.42110 | 33936 ft | 510 kts | 335° |
| 2026-05-03 22:36 | 0.72516 | -59.45241 | 33937 ft | 510 kts | 335° |
| 2026-05-03 22:36 | 0.78849 | -59.48356 | 33938 ft | 511 kts | 335° |
| 2026-05-03 22:37 | 0.85223 | -59.51491 | 33934 ft | 511 kts | 335° |
| 2026-05-03 22:37 | 0.91603 | -59.54629 | 33935 ft | 511 kts | 335° |
| 2026-05-03 22:38 | 0.97977 | -59.57764 | 33935 ft | 511 kts | 335° |
| 2026-05-03 22:38 | 1.04309 | -59.60880 | 33933 ft | 511 kts | 335° |
| 2026-05-03 22:39 | 1.10691 | -59.64020 | 33936 ft | 511 kts | 335° |
| 2026-05-03 22:39 | 1.17079 | -59.67160 | 33935 ft | 512 kts | 335° |
| 2026-05-03 22:40 | 1.23485 | -59.70301 | 33935 ft | 513 kts | 335° |
| 2026-05-03 22:40 | 1.29849 | -59.73421 | 33933 ft | 513 kts | 335° |
| 2026-05-03 22:41 | 1.36252 | -59.76563 | 33942 ft | 512 kts | 335° |
| 2026-05-03 22:41 | 1.42636 | -59.79696 | 33933 ft | 510 kts | 335° |
| 2026-05-03 22:42 | 1.48984 | -59.82812 | 33934 ft | 507 kts | 335° |
| 2026-05-03 22:42 | 1.55271 | -59.85898 | 33937 ft | 506 kts | 335° |
| 2026-05-03 22:43 | 1.61578 | -59.88994 | 33937 ft | 505 kts | 335° |
| 2026-05-03 22:43 | 1.67887 | -59.92091 | 33946 ft | 505 kts | 335° |
| 2026-05-03 22:44 | 1.74191 | -59.95185 | 33936 ft | 505 kts | 335° |
| 2026-05-03 22:44 | 1.80466 | -59.98266 | 33936 ft | 506 kts | 335° |
| 2026-05-03 22:45 | 1.86780 | -60.01366 | 33934 ft | 506 kts | 335° |
| 2026-05-03 22:45 | 1.93099 | -60.04469 | 33935 ft | 506 kts | 335° |
| 2026-05-03 22:46 | 1.99429 | -60.07578 | 33935 ft | 507 kts | 334° |
| 2026-05-03 22:46 | 2.05750 | -60.10682 | 33933 ft | 506 kts | 334° |
| 2026-05-03 22:47 | 2.12027 | -60.13765 | 33930 ft | 505 kts | 334° |
| 2026-05-03 22:47 | 2.18334 | -60.16864 | 33931 ft | 505 kts | 334° |
| 2026-05-03 22:48 | 2.24642 | -60.19962 | 33930 ft | 505 kts | 334° |
| 2026-05-03 22:48 | 2.30941 | -60.23057 | 33928 ft | 505 kts | 334° |
| 2026-05-03 22:49 | 2.37195 | -60.26130 | 33927 ft | 504 kts | 334° |
| 2026-05-03 22:49 | 2.43497 | -60.29227 | 33925 ft | 504 kts | 334° |
| 2026-05-03 22:50 | 2.49793 | -60.32321 | 33923 ft | 505 kts | 334° |
| 2026-05-03 22:50 | 2.56096 | -60.35419 | 33919 ft | 505 kts | 334° |
| 2026-05-03 22:51 | 2.62361 | -60.38499 | 33919 ft | 505 kts | 334° |
| 2026-05-03 22:51 | 2.68664 | -60.41598 | 33918 ft | 505 kts | 334° |
| 2026-05-03 22:52 | 2.74964 | -60.44696 | 33912 ft | 504 kts | 334° |
| 2026-05-03 22:52 | 2.81254 | -60.47789 | 33912 ft | 504 kts | 334° |
| 2026-05-03 22:53 | 2.87505 | -60.50864 | 33893 ft | 504 kts | 334° |
| 2026-05-03 22:53 | 2.93795 | -60.53958 | 33897 ft | 504 kts | 334° |
| 2026-05-03 22:54 | 3.00094 | -60.57057 | 33894 ft | 505 kts | 334° |
| 2026-05-03 22:54 | 3.06403 | -60.60160 | 33903 ft | 505 kts | 334° |
| 2026-05-03 22:55 | 3.12669 | -60.63240 | 33900 ft | 505 kts | 334° |
| 2026-05-03 22:55 | 3.18975 | -60.66342 | 33912 ft | 505 kts | 334° |
| 2026-05-03 22:56 | 3.25285 | -60.69447 | 33902 ft | 505 kts | 334° |
| 2026-05-03 22:56 | 3.31589 | -60.72549 | 33911 ft | 505 kts | 334° |
| 2026-05-03 22:57 | 3.37842 | -60.75634 | 33902 ft | 504 kts | 333° |
| 2026-05-03 22:57 | 3.44132 | -60.78749 | 33906 ft | 504 kts | 333° |
| 2026-05-03 22:58 | 3.50414 | -60.81861 | 33908 ft | 504 kts | 333° |
| 2026-05-03 22:58 | 3.56698 | -60.84972 | 33905 ft | 504 kts | 333° |
| 2026-05-03 22:59 | 3.62991 | -60.88088 | 33908 ft | 504 kts | 333° |
| 2026-05-03 22:59 | 3.69239 | -60.91182 | 33907 ft | 504 kts | 333° |
| 2026-05-03 23:00 | 3.75527 | -60.94294 | 33898 ft | 503 kts | 332° |
| 2026-05-03 23:00 | 3.81798 | -60.97386 | 33905 ft | 502 kts | 332° |
| 2026-05-03 23:01 | 3.88024 | -61.00455 | 33907 ft | 502 kts | 333° |
| 2026-05-03 23:01 | 3.94280 | -61.03543 | 33901 ft | 501 kts | 332° |
| 2026-05-03 23:02 | 4.00530 | -61.06629 | 33909 ft | 501 kts | 333° |
| 2026-05-03 23:02 | 4.06783 | -61.09717 | 33916 ft | 501 kts | 332° |
| 2026-05-03 23:03 | 4.13032 | -61.12803 | 33915 ft | 501 kts | 332° |
| 2026-05-03 23:03 | 4.19241 | -61.15870 | 33929 ft | 501 kts | 332° |
| 2026-05-03 23:04 | 4.25496 | -61.18960 | 33931 ft | 501 kts | 332° |
| 2026-05-03 23:04 | 4.31750 | -61.22051 | 33943 ft | 501 kts | 332° |
| 2026-05-03 23:05 | 4.38003 | -61.25142 | 33948 ft | 501 kts | 332° |
| 2026-05-03 23:05 | 4.44258 | -61.28235 | 33961 ft | 501 kts | 332° |
| 2026-05-03 23:06 | 4.50649 | -61.30910 | 33972 ft | 502 kts | 338° |
| 2026-05-03 23:06 | 4.57197 | -61.33345 | 33969 ft | 502 kts | 338° |
| 2026-05-03 23:07 | 4.63747 | -61.35787 | 33965 ft | 502 kts | 338° |
| 2026-05-03 23:07 | 4.70293 | -61.38257 | 33972 ft | 502 kts | 337° |
| 2026-05-03 23:08 | 4.76794 | -61.40725 | 33967 ft | 503 kts | 337° |
| 2026-05-03 23:08 | 4.83331 | -61.43209 | 33975 ft | 503 kts | 337° |
| 2026-05-03 23:09 | 4.89869 | -61.45692 | 33968 ft | 503 kts | 337° |
| 2026-05-03 23:09 | 4.96412 | -61.48177 | 33973 ft | 503 kts | 337° |
| 2026-05-03 23:10 | 5.02908 | -61.50644 | 33978 ft | 503 kts | 337° |
| 2026-05-03 23:10 | 5.09450 | -61.53129 | 33974 ft | 503 kts | 337° |
| 2026-05-03 23:11 | 5.15984 | -61.55613 | 33979 ft | 502 kts | 337° |
| 2026-05-03 23:11 | 5.22520 | -61.58096 | 33976 ft | 502 kts | 338° |
| 2026-05-03 23:12 | 5.29051 | -61.60578 | 33985 ft | 502 kts | 337° |
| 2026-05-03 23:12 | 5.35537 | -61.63045 | 33987 ft | 502 kts | 337° |
| 2026-05-03 23:13 | 5.42075 | -61.65531 | 33993 ft | 502 kts | 337° |
| 2026-05-03 23:13 | 5.48608 | -61.68017 | 33999 ft | 502 kts | 337° |
| 2026-05-03 23:14 | 5.55146 | -61.70504 | 34003 ft | 503 kts | 337° |
| 2026-05-03 23:14 | 5.61645 | -61.72977 | 34006 ft | 503 kts | 337° |
| 2026-05-03 23:15 | 5.68185 | -61.75467 | 34000 ft | 503 kts | 337° |
| 2026-05-03 23:15 | 5.74729 | -61.77959 | 33993 ft | 503 kts | 337° |
| 2026-05-03 23:16 | 5.81265 | -61.80449 | 33987 ft | 503 kts | 337° |
| 2026-05-03 23:16 | 5.87768 | -61.82925 | 33984 ft | 503 kts | 337° |
| 2026-05-03 23:17 | 5.94313 | -61.85419 | 33967 ft | 503 kts | 337° |
| 2026-05-03 23:17 | 6.00857 | -61.87913 | 33964 ft | 503 kts | 337° |
| 2026-05-03 23:18 | 6.07409 | -61.90411 | 33940 ft | 504 kts | 336° |
| 2026-05-03 23:18 | 6.13961 | -61.92910 | 33945 ft | 504 kts | 336° |
| 2026-05-03 23:19 | 6.20483 | -61.95398 | 33922 ft | 505 kts | 336° |
| 2026-05-03 23:19 | 6.27056 | -61.97906 | 33918 ft | 505 kts | 336° |
| 2026-05-03 23:20 | 6.33627 | -62.00413 | 33910 ft | 505 kts | 336° |
| 2026-05-03 23:20 | 6.40198 | -62.02922 | 33910 ft | 505 kts | 336° |
| 2026-05-03 23:21 | 6.46724 | -62.05414 | 33906 ft | 505 kts | 336° |
| 2026-05-03 23:21 | 6.53292 | -62.07923 | 33905 ft | 505 kts | 336° |
| 2026-05-03 23:22 | 6.63129 | -62.11682 | 33905 ft | 504 kts | 336° |
| 2026-05-03 23:22 | 6.69644 | -62.14172 | 33906 ft | 504 kts | 336° |
| 2026-05-03 23:23 | 6.76199 | -62.16679 | 33906 ft | 503 kts | 336° |
| 2026-05-03 23:23 | 6.82742 | -62.19182 | 33904 ft | 503 kts | 336° |
| 2026-05-03 23:24 | 6.89281 | -62.21684 | 33902 ft | 503 kts | 336° |
| 2026-05-03 23:24 | 6.95819 | -62.24185 | 33905 ft | 502 kts | 337° |
| 2026-05-03 23:25 | 7.02304 | -62.26660 | 33905 ft | 502 kts | 337° |
| 2026-05-03 23:25 | 7.08831 | -62.29149 | 33902 ft | 502 kts | 337° |
| 2026-05-03 23:26 | 7.15364 | -62.31644 | 33906 ft | 502 kts | 337° |
| 2026-05-03 23:26 | 7.21893 | -62.34139 | 33909 ft | 502 kts | 337° |
| 2026-05-03 23:27 | 7.28431 | -62.36639 | 33908 ft | 503 kts | 337° |
| 2026-05-03 23:27 | 7.34925 | -62.39121 | 33906 ft | 503 kts | 337° |
| 2026-05-03 23:28 | 7.41463 | -62.41622 | 33908 ft | 503 kts | 337° |
| 2026-05-03 23:28 | 7.48011 | -62.44127 | 33910 ft | 503 kts | 337° |
| 2026-05-03 23:29 | 7.54518 | -62.46617 | 34043 ft | 502 kts | 337° |
| 2026-05-03 23:29 | 7.57769 | -62.47861 | 34262 ft | 499 kts | 337° |
| 2026-05-03 23:29 | 7.61006 | -62.49100 | 34486 ft | 497 kts | 337° |
| 2026-05-03 23:30 | 7.64237 | -62.50337 | 34711 ft | 497 kts | 337° |
| 2026-05-03 23:30 | 7.67464 | -62.51573 | 34930 ft | 496 kts | 337° |
| 2026-05-03 23:30 | 7.70687 | -62.52808 | 35162 ft | 495 kts | 337° |
| 2026-05-03 23:30 | 7.73908 | -62.54043 | 35397 ft | 494 kts | 337° |
| 2026-05-03 23:31 | 7.77118 | -62.55272 | 35618 ft | 493 kts | 337° |
| 2026-05-03 23:31 | 7.80320 | -62.56500 | 35816 ft | 493 kts | 337° |
| 2026-05-03 23:31 | 7.86684 | -62.58939 | 35900 ft | 490 kts | 337° |
| 2026-05-03 23:32 | 7.93032 | -62.61373 | 35908 ft | 487 kts | 337° |
| 2026-05-03 23:32 | 7.99360 | -62.63801 | 35921 ft | 486 kts | 337° |
| 2026-05-03 23:33 | 8.05671 | -62.66223 | 35914 ft | 485 kts | 337° |
| 2026-05-03 23:33 | 8.11980 | -62.68645 | 35920 ft | 485 kts | 337° |
| 2026-05-03 23:34 | 8.18253 | -62.71055 | 35915 ft | 486 kts | 337° |
| 2026-05-03 23:34 | 8.24568 | -62.73480 | 35912 ft | 486 kts | 337° |
| 2026-05-03 23:35 | 8.30856 | -62.75963 | 35910 ft | 485 kts | 334° |
| 2026-05-03 23:35 | 8.37011 | -62.78744 | 35901 ft | 484 kts | 333° |
| 2026-05-03 23:36 | 8.43097 | -62.81555 | 35904 ft | 484 kts | 333° |
| 2026-05-03 23:36 | 8.49226 | -62.84371 | 35902 ft | 484 kts | 334° |
| 2026-05-03 23:37 | 8.55361 | -62.87171 | 35904 ft | 484 kts | 334° |
| 2026-05-03 23:37 | 8.61496 | -62.89967 | 35904 ft | 483 kts | 334° |
| 2026-05-03 23:38 | 8.67584 | -62.92742 | 35907 ft | 483 kts | 334° |
| 2026-05-03 23:38 | 8.73714 | -62.95539 | 35907 ft | 483 kts | 334° |
| 2026-05-03 23:39 | 8.79836 | -62.98334 | 35921 ft | 482 kts | 334° |
| 2026-05-03 23:39 | 8.85904 | -63.01105 | 35908 ft | 481 kts | 334° |
| 2026-05-03 23:40 | 8.92005 | -63.03891 | 35913 ft | 480 kts | 334° |
| 2026-05-03 23:40 | 8.98083 | -63.06669 | 35914 ft | 479 kts | 334° |
| 2026-05-03 23:41 | 9.04155 | -63.09445 | 35915 ft | 478 kts | 334° |
| 2026-05-03 23:41 | 9.10213 | -63.12215 | 35924 ft | 478 kts | 334° |
| 2026-05-03 23:42 | 9.16228 | -63.14967 | 35923 ft | 477 kts | 334° |
| 2026-05-03 23:42 | 9.22284 | -63.17739 | 35925 ft | 477 kts | 334° |
| 2026-05-03 23:43 | 9.28336 | -63.20510 | 35926 ft | 478 kts | 334° |
| 2026-05-03 23:43 | 9.34395 | -63.23285 | 35931 ft | 478 kts | 334° |
| 2026-05-03 23:44 | 9.40407 | -63.26040 | 35932 ft | 478 kts | 334° |
| 2026-05-03 23:44 | 9.46471 | -63.28819 | 35932 ft | 478 kts | 334° |
| 2026-05-03 23:45 | 9.52530 | -63.31598 | 35940 ft | 478 kts | 334° |
| 2026-05-03 23:45 | 9.58595 | -63.34380 | 35939 ft | 478 kts | 334° |
| 2026-05-03 23:46 | 9.64652 | -63.37160 | 35946 ft | 478 kts | 334° |
| 2026-05-03 23:46 | 9.70670 | -63.39923 | 35945 ft | 478 kts | 334° |
| 2026-05-03 23:47 | 9.76721 | -63.42703 | 35961 ft | 477 kts | 334° |
| 2026-05-03 23:47 | 9.82769 | -63.45481 | 35961 ft | 477 kts | 334° |
| 2026-05-03 23:48 | 9.88822 | -63.48258 | 35977 ft | 477 kts | 334° |
| 2026-05-03 23:48 | 9.94836 | -63.51016 | 35976 ft | 477 kts | 334° |
| 2026-05-03 23:49 | 10.00883 | -63.53792 | 35982 ft | 477 kts | 334° |
| 2026-05-03 23:49 | 10.06932 | -63.56571 | 35985 ft | 477 kts | 334° |
| 2026-05-03 23:50 | 10.11966 | -63.58886 | 35977 ft | 478 kts | 334° |
| 2026-05-03 23:50 | 10.19000 | -63.62120 | 35999 ft | 478 kts | 334° |
| 2026-05-03 23:51 | 10.25059 | -63.64907 | 35997 ft | 478 kts | 334° |
| 2026-05-03 23:51 | 10.31126 | -63.67698 | 35987 ft | 478 kts | 334° |
| 2026-05-03 23:52 | 10.37183 | -63.70487 | 35985 ft | 478 kts | 334° |
| 2026-05-03 23:52 | 10.43238 | -63.73276 | 35986 ft | 477 kts | 334° |
| 2026-05-03 23:53 | 10.49243 | -63.76044 | 35969 ft | 477 kts | 334° |
| 2026-05-03 23:53 | 10.55281 | -63.78828 | 35977 ft | 476 kts | 333° |
| 2026-05-03 23:54 | 10.61313 | -63.81616 | 35964 ft | 476 kts | 333° |
| 2026-05-03 23:54 | 10.67334 | -63.84399 | 35957 ft | 475 kts | 333° |
| 2026-05-03 23:55 | 10.73318 | -63.87155 | 35954 ft | 475 kts | 333° |
| 2026-05-03 23:55 | 10.79331 | -63.89927 | 35953 ft | 475 kts | 333° |
| 2026-05-03 23:56 | 10.85340 | -63.92701 | 35960 ft | 474 kts | 333° |
| 2026-05-03 23:56 | 10.91367 | -63.95443 | 35958 ft | 475 kts | 335° |
| 2026-05-03 23:57 | 10.97614 | -63.97532 | 35966 ft | 476 kts | 340° |
| 2026-05-03 23:57 | 11.03961 | -63.99478 | 35956 ft | 477 kts | 340° |
| 2026-05-03 23:58 | 11.10308 | -64.01443 | 35953 ft | 477 kts | 340° |
| 2026-05-03 23:58 | 11.16642 | -64.03429 | 35959 ft | 476 kts | 340° |
| 2026-05-03 23:59 | 11.22935 | -64.05411 | 35965 ft | 476 kts | 340° |
| 2026-05-03 23:59 | 11.29256 | -64.07403 | 35962 ft | 475 kts | 340° |
| 2026-05-04 00:00 | 11.35573 | -64.09394 | 35962 ft | 474 kts | 340° |
| 2026-05-04 00:00 | 11.41873 | -64.11379 | 35964 ft | 474 kts | 340° |
| 2026-05-04 00:01 | 11.48123 | -64.13350 | 35961 ft | 473 kts | 340° |
| 2026-05-04 00:01 | 11.54416 | -64.15335 | 35970 ft | 473 kts | 340° |
| 2026-05-04 00:02 | 11.60719 | -64.17325 | 35972 ft | 475 kts | 340° |
| 2026-05-04 00:02 | 11.67051 | -64.19325 | 35973 ft | 477 kts | 340° |
| 2026-05-04 00:03 | 11.73405 | -64.21333 | 35971 ft | 479 kts | 340° |
| 2026-05-04 00:03 | 11.79736 | -64.23334 | 35968 ft | 480 kts | 340° |
| 2026-05-04 00:04 | 11.86127 | -64.25355 | 35970 ft | 481 kts | 340° |
| 2026-05-04 00:04 | 11.91438 | -64.27035 | 35970 ft | 481 kts | 341° |
| 2026-05-04 00:05 | 11.97836 | -64.29060 | 35976 ft | 481 kts | 341° |
| 2026-05-04 00:05 | 12.05264 | -64.31413 | 35982 ft | 481 kts | 341° |
| 2026-05-04 00:06 | 12.11658 | -64.33439 | 35979 ft | 481 kts | 340° |
| 2026-05-04 00:06 | 12.16963 | -64.35121 | 35969 ft | 480 kts | 341° |
| 2026-05-04 00:07 | 12.24379 | -64.37475 | 35986 ft | 479 kts | 341° |
| 2026-05-04 00:07 | 12.30738 | -64.39491 | 35983 ft | 478 kts | 341° |
| 2026-05-04 00:08 | 12.36007 | -64.41164 | 35987 ft | 476 kts | 341° |
| 2026-05-04 00:08 | 12.42321 | -64.43208 | 35968 ft | 476 kts | 341° |
| 2026-05-04 00:09 | 12.49640 | -64.45605 | 35975 ft | 475 kts | 341° |
| 2026-05-04 00:09 | 12.54915 | -64.47331 | 35996 ft | 475 kts | 340° |
| 2026-05-04 00:10 | 12.61183 | -64.49380 | 35990 ft | 476 kts | 341° |
| 2026-05-04 00:10 | 12.67494 | -64.51441 | 35985 ft | 477 kts | 341° |
| 2026-05-04 00:11 | 12.73814 | -64.53507 | 35989 ft | 477 kts | 341° |
| 2026-05-04 00:11 | 12.80132 | -64.55572 | 36002 ft | 477 kts | 341° |
| 2026-05-04 00:12 | 12.86411 | -64.57627 | 36002 ft | 476 kts | 341° |
| 2026-05-04 00:12 | 12.92724 | -64.59693 | 35994 ft | 476 kts | 341° |
| 2026-05-04 00:13 | 12.99022 | -64.61757 | 35994 ft | 475 kts | 341° |
| 2026-05-04 00:13 | 13.05312 | -64.63819 | 35996 ft | 474 kts | 341° |
| 2026-05-04 00:14 | 13.11569 | -64.65847 | 36003 ft | 474 kts | 341° |
| 2026-05-04 00:14 | 13.17888 | -64.67828 | 35998 ft | 475 kts | 342° |
| 2026-05-04 00:15 | 13.24202 | -64.69818 | 35993 ft | 475 kts | 342° |
| 2026-05-04 00:15 | 13.30522 | -64.71816 | 36002 ft | 476 kts | 341° |
| 2026-05-04 00:16 | 13.36807 | -64.73805 | 36015 ft | 476 kts | 342° |
| 2026-05-04 00:16 | 13.43137 | -64.75807 | 36003 ft | 476 kts | 341° |
| 2026-05-04 00:17 | 13.49460 | -64.77809 | 36001 ft | 476 kts | 342° |
| 2026-05-04 00:17 | 13.55779 | -64.79810 | 36005 ft | 475 kts | 342° |
| 2026-05-04 00:18 | 13.62061 | -64.81802 | 36009 ft | 475 kts | 342° |
| 2026-05-04 00:18 | 13.68377 | -64.83805 | 36004 ft | 475 kts | 342° |
| 2026-05-04 00:19 | 13.74694 | -64.85810 | 35999 ft | 475 kts | 342° |
| 2026-05-04 00:19 | 13.81004 | -64.87813 | 36005 ft | 475 kts | 342° |
| 2026-05-04 00:20 | 13.87273 | -64.89805 | 36009 ft | 475 kts | 342° |
| 2026-05-04 00:20 | 13.93610 | -64.91747 | 36015 ft | 475 kts | 344° |
| 2026-05-04 00:21 | 14.00027 | -64.93395 | 36008 ft | 476 kts | 345° |
| 2026-05-04 00:21 | 14.06427 | -64.95136 | 36007 ft | 475 kts | 342° |
| 2026-05-04 00:22 | 14.12723 | -64.97200 | 36016 ft | 475 kts | 341° |
| 2026-05-04 00:22 | 14.18971 | -64.99299 | 36015 ft | 475 kts | 341° |
| 2026-05-04 00:23 | 14.25261 | -65.01398 | 36023 ft | 475 kts | 341° |
| 2026-05-04 00:23 | 14.31565 | -65.03488 | 36015 ft | 476 kts | 341° |
| 2026-05-04 00:24 | 14.37869 | -65.05575 | 36013 ft | 476 kts | 341° |
| 2026-05-04 00:24 | 14.44173 | -65.07665 | 36018 ft | 476 kts | 341° |
| 2026-05-04 00:25 | 14.50441 | -65.09744 | 36015 ft | 476 kts | 341° |
| 2026-05-04 00:25 | 14.56745 | -65.11836 | 36018 ft | 476 kts | 341° |
| 2026-05-04 00:26 | 14.63052 | -65.13931 | 36015 ft | 476 kts | 341° |
| 2026-05-04 00:26 | 14.69356 | -65.16026 | 36019 ft | 476 kts | 341° |
| 2026-05-04 00:27 | 14.75620 | -65.18110 | 36023 ft | 476 kts | 341° |
| 2026-05-04 00:27 | 14.81932 | -65.20210 | 36026 ft | 477 kts | 341° |
| 2026-05-04 00:28 | 14.88250 | -65.22313 | 36020 ft | 477 kts | 341° |
| 2026-05-04 00:28 | 14.94562 | -65.24416 | 36023 ft | 477 kts | 341° |
| 2026-05-04 00:29 | 15.00840 | -65.26509 | 36026 ft | 477 kts | 341° |
| 2026-05-04 00:29 | 15.07159 | -65.28617 | 36027 ft | 477 kts | 341° |
| 2026-05-04 00:30 | 15.13481 | -65.30716 | 36023 ft | 477 kts | 341° |
| 2026-05-04 00:30 | 15.19812 | -65.32789 | 36027 ft | 477 kts | 341° |
| 2026-05-04 00:31 | 15.26093 | -65.34844 | 36032 ft | 477 kts | 341° |
| 2026-05-04 00:31 | 15.32426 | -65.36923 | 36029 ft | 477 kts | 341° |
| 2026-05-04 00:32 | 15.38759 | -65.39004 | 36032 ft | 478 kts | 341° |
| 2026-05-04 00:32 | 15.45100 | -65.41091 | 36030 ft | 478 kts | 341° |
| 2026-05-04 00:33 | 15.54567 | -65.44208 | 36033 ft | 478 kts | 341° |
| 2026-05-04 00:34 | 15.60907 | -65.46297 | 36035 ft | 478 kts | 341° |
| 2026-05-04 00:34 | 15.67256 | -65.48390 | 36032 ft | 479 kts | 341° |
| 2026-05-04 00:35 | 15.73591 | -65.50392 | 36034 ft | 479 kts | 343° |
| 2026-05-04 00:35 | 15.80008 | -65.52272 | 36035 ft | 479 kts | 343° |
| 2026-05-04 00:36 | 15.86429 | -65.54146 | 36035 ft | 479 kts | 343° |
| 2026-05-04 00:36 | 15.92851 | -65.56043 | 36044 ft | 479 kts | 343° |
| 2026-05-04 00:37 | 15.99266 | -65.57952 | 36038 ft | 480 kts | 343° |
| 2026-05-04 00:37 | 16.05642 | -65.59853 | 36038 ft | 480 kts | 343° |
| 2026-05-04 00:38 | 16.12067 | -65.61770 | 36033 ft | 480 kts | 343° |
| 2026-05-04 00:38 | 16.18486 | -65.63685 | 36044 ft | 480 kts | 343° |
| 2026-05-04 00:39 | 16.24911 | -65.65602 | 36045 ft | 480 kts | 343° |
| 2026-05-04 00:39 | 16.31332 | -65.67520 | 36046 ft | 480 kts | 343° |
| 2026-05-04 00:40 | 16.37719 | -65.69430 | 36039 ft | 481 kts | 343° |
| 2026-05-04 00:40 | 16.44145 | -65.71351 | 36048 ft | 481 kts | 343° |
| 2026-05-04 00:41 | 16.50576 | -65.73276 | 36047 ft | 481 kts | 343° |
| 2026-05-04 00:41 | 16.57002 | -65.75201 | 36047 ft | 481 kts | 343° |
| 2026-05-04 00:42 | 16.63386 | -65.77114 | 36051 ft | 481 kts | 343° |
| 2026-05-04 00:42 | 16.69817 | -65.79043 | 36051 ft | 481 kts | 343° |
| 2026-05-04 00:43 | 16.76248 | -65.80974 | 36051 ft | 481 kts | 343° |
| 2026-05-04 00:43 | 16.82673 | -65.82903 | 36052 ft | 481 kts | 343° |
| 2026-05-04 00:44 | 16.89054 | -65.84821 | 36052 ft | 481 kts | 343° |
| 2026-05-04 00:44 | 16.95483 | -65.86755 | 36057 ft | 481 kts | 343° |
| 2026-05-04 00:45 | 17.01910 | -65.88689 | 36053 ft | 481 kts | 343° |
| 2026-05-04 00:45 | 17.08334 | -65.90625 | 36055 ft | 481 kts | 342° |
| 2026-05-04 00:46 | 17.14716 | -65.92548 | 36055 ft | 481 kts | 342° |
| 2026-05-04 00:46 | 17.21145 | -65.94487 | 36058 ft | 481 kts | 342° |
| 2026-05-04 00:47 | 17.27568 | -65.96426 | 36062 ft | 481 kts | 342° |
| 2026-05-04 00:47 | 17.33998 | -65.98369 | 36055 ft | 481 kts | 342° |
| 2026-05-04 00:48 | 17.40422 | -66.00311 | 36059 ft | 481 kts | 342° |
| 2026-05-04 00:48 | 17.46802 | -66.02241 | 36060 ft | 481 kts | 342° |
| 2026-05-04 00:49 | 17.53231 | -66.04187 | 36064 ft | 481 kts | 342° |
| 2026-05-04 00:49 | 17.59654 | -66.06133 | 36065 ft | 481 kts | 342° |
| 2026-05-04 00:50 | 17.66083 | -66.08082 | 36061 ft | 481 kts | 342° |
| 2026-05-04 00:50 | 17.72465 | -66.10019 | 36065 ft | 481 kts | 342° |
| 2026-05-04 00:51 | 17.78896 | -66.11972 | 36061 ft | 481 kts | 342° |
| 2026-05-04 00:51 | 17.85322 | -66.13924 | 36074 ft | 481 kts | 342° |
| 2026-05-04 00:52 | 17.91748 | -66.15878 | 36079 ft | 481 kts | 342° |
| 2026-05-04 00:52 | 17.98138 | -66.17823 | 36081 ft | 481 kts | 342° |
| 2026-05-04 00:53 | 18.04567 | -66.19781 | 36088 ft | 481 kts | 342° |
| 2026-05-04 00:53 | 18.10996 | -66.21740 | 36093 ft | 481 kts | 342° |
| 2026-05-04 00:54 | 18.17429 | -66.23703 | 36087 ft | 481 kts | 342° |
| 2026-05-04 00:54 | 18.23814 | -66.25652 | 36086 ft | 481 kts | 342° |
| 2026-05-04 00:55 | 18.30244 | -66.27616 | 36089 ft | 481 kts | 342° |
| 2026-05-04 00:55 | 18.36676 | -66.29582 | 36087 ft | 481 kts | 342° |
| 2026-05-04 00:56 | 18.43109 | -66.31551 | 36082 ft | 481 kts | 342° |
| 2026-05-04 00:56 | 18.49491 | -66.33505 | 36084 ft | 481 kts | 342° |
| 2026-05-04 00:57 | 18.55910 | -66.35472 | 36074 ft | 480 kts | 342° |
| 2026-05-04 00:57 | 18.62323 | -66.37439 | 36077 ft | 480 kts | 342° |
| 2026-05-04 00:58 | 18.68734 | -66.39407 | 36065 ft | 479 kts | 342° |
| 2026-05-04 00:58 | 18.75131 | -66.41372 | 36065 ft | 479 kts | 342° |
| 2026-05-04 00:59 | 18.81479 | -66.43323 | 36068 ft | 478 kts | 342° |
| 2026-05-04 00:59 | 18.87872 | -66.45289 | 36069 ft | 478 kts | 342° |
| 2026-05-04 01:00 | 18.94261 | -66.47256 | 36073 ft | 478 kts | 342° |
| 2026-05-04 01:00 | 19.00658 | -66.49227 | 36075 ft | 479 kts | 342° |
| 2026-05-04 01:01 | 19.07007 | -66.51186 | 36072 ft | 479 kts | 342° |
| 2026-05-04 01:01 | 19.13404 | -66.53160 | 36067 ft | 479 kts | 342° |
| 2026-05-04 01:02 | 19.19804 | -66.55137 | 36070 ft | 479 kts | 342° |
| 2026-05-04 01:02 | 19.26211 | -66.57118 | 36071 ft | 480 kts | 342° |
| 2026-05-04 01:03 | 19.32614 | -66.59099 | 36075 ft | 480 kts | 342° |
| 2026-05-04 01:03 | 19.38974 | -66.61068 | 36077 ft | 479 kts | 342° |
| 2026-05-04 01:04 | 19.45376 | -66.63052 | 36079 ft | 479 kts | 342° |
| 2026-05-04 01:04 | 19.51778 | -66.65038 | 36076 ft | 479 kts | 342° |
| 2026-05-04 01:05 | 19.58183 | -66.67026 | 36073 ft | 479 kts | 342° |
| 2026-05-04 01:05 | 19.64538 | -66.69001 | 36080 ft | 479 kts | 342° |
| 2026-05-04 01:06 | 19.70938 | -66.70991 | 36076 ft | 480 kts | 342° |
| 2026-05-04 01:06 | 19.77345 | -66.72984 | 36077 ft | 480 kts | 342° |
| 2026-05-04 01:07 | 19.83748 | -66.74979 | 36086 ft | 480 kts | 342° |
| 2026-05-04 01:07 | 19.90116 | -66.76964 | 36084 ft | 480 kts | 342° |
| 2026-05-04 01:08 | 19.96521 | -66.78963 | 36083 ft | 480 kts | 342° |
| 2026-05-04 01:08 | 20.02952 | -66.80889 | 36084 ft | 480 kts | 344° |
| 2026-05-04 01:09 | 20.09448 | -66.82548 | 36089 ft | 480 kts | 345° |
| 2026-05-04 01:09 | 20.15916 | -66.84166 | 36086 ft | 480 kts | 345° |
| 2026-05-04 01:10 | 20.22413 | -66.85832 | 36089 ft | 480 kts | 345° |
| 2026-05-04 01:10 | 20.28912 | -66.87525 | 36087 ft | 480 kts | 345° |
| 2026-05-04 01:11 | 20.35402 | -66.89221 | 36090 ft | 480 kts | 345° |
| 2026-05-04 01:11 | 20.41889 | -66.90916 | 36087 ft | 480 kts | 345° |
| 2026-05-04 01:12 | 20.48328 | -66.92599 | 36092 ft | 480 kts | 345° |
| 2026-05-04 01:12 | 20.54809 | -66.94294 | 36097 ft | 479 kts | 345° |
| 2026-05-04 01:13 | 20.61278 | -66.95987 | 36092 ft | 479 kts | 345° |
| 2026-05-04 01:13 | 20.67745 | -66.97682 | 36092 ft | 478 kts | 345° |
| 2026-05-04 01:14 | 20.74160 | -66.99364 | 36094 ft | 478 kts | 345° |
| 2026-05-04 01:14 | 20.80614 | -67.01058 | 36099 ft | 478 kts | 345° |
| 2026-05-04 01:15 | 20.87073 | -67.02755 | 36107 ft | 478 kts | 345° |
| 2026-05-04 01:15 | 20.93527 | -67.04452 | 36100 ft | 478 kts | 345° |
| 2026-05-04 01:16 | 20.99987 | -67.06152 | 36101 ft | 478 kts | 345° |
| 2026-05-04 01:16 | 21.06401 | -67.07842 | 36101 ft | 478 kts | 345° |
| 2026-05-04 01:17 | 21.12862 | -67.09545 | 36103 ft | 478 kts | 345° |
| 2026-05-04 01:17 | 21.19321 | -67.11250 | 36109 ft | 478 kts | 344° |
| 2026-05-04 01:18 | 21.25744 | -67.12946 | 36104 ft | 478 kts | 345° |
| 2026-05-04 01:18 | 21.32285 | -67.14306 | 36110 ft | 479 kts | 348° |
| 2026-05-04 01:19 | 21.38864 | -67.15486 | 36110 ft | 480 kts | 348° |
| 2026-05-04 01:19 | 21.45447 | -67.16688 | 36109 ft | 480 kts | 348° |
| 2026-05-04 01:20 | 21.52020 | -67.17914 | 36108 ft | 480 kts | 348° |
| 2026-05-04 01:20 | 21.58552 | -67.19137 | 36106 ft | 480 kts | 348° |
| 2026-05-04 01:21 | 21.65137 | -67.20385 | 36117 ft | 482 kts | 347° |
| 2026-05-04 01:21 | 21.71778 | -67.21727 | 36119 ft | 489 kts | 347° |
| 2026-05-04 01:22 | 21.78473 | -67.23093 | 36121 ft | 490 kts | 347° |
| 2026-05-04 01:22 | 21.85132 | -67.24440 | 36113 ft | 490 kts | 347° |
| 2026-05-04 01:23 | 21.91828 | -67.25790 | 36111 ft | 489 kts | 347° |
| 2026-05-04 01:23 | 21.98510 | -67.27139 | 36111 ft | 487 kts | 347° |
| 2026-05-04 01:24 | 22.05165 | -67.28485 | 36111 ft | 486 kts | 347° |
| 2026-05-04 01:24 | 22.11809 | -67.29830 | 36119 ft | 485 kts | 346° |
| 2026-05-04 01:25 | 22.18392 | -67.31165 | 36113 ft | 484 kts | 346° |
| 2026-05-04 01:25 | 22.25016 | -67.32509 | 36112 ft | 484 kts | 346° |
| 2026-05-04 01:26 | 22.31636 | -67.33860 | 36115 ft | 484 kts | 346° |
| 2026-05-04 01:26 | 22.38250 | -67.35213 | 36118 ft | 484 kts | 346° |
| 2026-05-04 01:27 | 22.44827 | -67.36559 | 36126 ft | 485 kts | 346° |
| 2026-05-04 01:27 | 22.51463 | -67.37919 | 36110 ft | 486 kts | 346° |
| 2026-05-04 01:28 | 22.58103 | -67.39281 | 36122 ft | 486 kts | 346° |
| 2026-05-04 01:28 | 22.64756 | -67.40647 | 36118 ft | 487 kts | 346° |
| 2026-05-04 01:29 | 22.71364 | -67.42004 | 36129 ft | 487 kts | 346° |
| 2026-05-04 01:29 | 22.78020 | -67.43373 | 36130 ft | 487 kts | 346° |
| 2026-05-04 01:30 | 22.84687 | -67.44745 | 36116 ft | 488 kts | 346° |
| 2026-05-04 01:30 | 22.91350 | -67.46118 | 36112 ft | 488 kts | 346° |
| 2026-05-04 01:31 | 22.98020 | -67.47494 | 36125 ft | 488 kts | 346° |
| 2026-05-04 01:31 | 23.04641 | -67.48861 | 36128 ft | 488 kts | 346° |
| 2026-05-04 01:32 | 23.11303 | -67.50238 | 36115 ft | 487 kts | 346° |
| 2026-05-04 01:32 | 23.17968 | -67.51617 | 36117 ft | 487 kts | 346° |
| 2026-05-04 01:33 | 23.24631 | -67.52996 | 36115 ft | 487 kts | 346° |
| 2026-05-04 01:33 | 23.31242 | -67.54367 | 36132 ft | 487 kts | 346° |
| 2026-05-04 01:34 | 23.37900 | -67.55748 | 36129 ft | 487 kts | 345° |
| 2026-05-04 01:34 | 23.44567 | -67.57134 | 36124 ft | 488 kts | 345° |
| 2026-05-04 01:35 | 23.51232 | -67.58520 | 36121 ft | 488 kts | 345° |
| 2026-05-04 01:35 | 23.57905 | -67.59909 | 36119 ft | 488 kts | 345° |
| 2026-05-04 01:36 | 23.64529 | -67.61289 | 36133 ft | 488 kts | 345° |
| 2026-05-04 01:36 | 23.71202 | -67.62681 | 36129 ft | 489 kts | 345° |
| 2026-05-04 01:37 | 23.77884 | -67.64076 | 36122 ft | 489 kts | 345° |
| 2026-05-04 01:37 | 23.84568 | -67.65473 | 36123 ft | 489 kts | 345° |
| 2026-05-04 01:38 | 23.91247 | -67.66871 | 36124 ft | 489 kts | 345° |
| 2026-05-04 01:38 | 23.97882 | -67.68261 | 36130 ft | 489 kts | 345° |
| 2026-05-04 01:39 | 24.04567 | -67.69663 | 36122 ft | 489 kts | 345° |
| 2026-05-04 01:39 | 24.11261 | -67.71068 | 36127 ft | 490 kts | 345° |
| 2026-05-04 01:40 | 24.17949 | -67.72474 | 36124 ft | 490 kts | 345° |
| 2026-05-04 01:40 | 24.24601 | -67.73873 | 36121 ft | 490 kts | 345° |
| 2026-05-04 01:41 | 24.31296 | -67.75283 | 36126 ft | 490 kts | 345° |
| 2026-05-04 01:41 | 24.37998 | -67.76695 | 36123 ft | 491 kts | 345° |
| 2026-05-04 01:42 | 24.44709 | -67.78111 | 36127 ft | 491 kts | 345° |
| 2026-05-04 01:42 | 24.51371 | -67.79518 | 36126 ft | 491 kts | 345° |
| 2026-05-04 01:43 | 24.58079 | -67.80937 | 36136 ft | 491 kts | 345° |
| 2026-05-04 01:43 | 24.64798 | -67.82359 | 36127 ft | 492 kts | 345° |
| 2026-05-04 01:44 | 24.71514 | -67.83783 | 36124 ft | 492 kts | 345° |
| 2026-05-04 01:44 | 24.78192 | -67.85200 | 36128 ft | 492 kts | 345° |
| 2026-05-04 01:45 | 24.84909 | -67.86626 | 36123 ft | 492 kts | 345° |
| 2026-05-04 01:45 | 24.94996 | -67.88772 | 36122 ft | 492 kts | 344° |
| 2026-05-04 01:46 | 25.01718 | -67.90204 | 36120 ft | 492 kts | 344° |
| 2026-05-04 01:46 | 25.08447 | -67.91639 | 36128 ft | 492 kts | 344° |
| 2026-05-04 01:47 | 25.15124 | -67.93064 | 36130 ft | 492 kts | 344° |
| 2026-05-04 01:47 | 25.21848 | -67.94501 | 36122 ft | 493 kts | 344° |
| 2026-05-04 01:48 | 25.28581 | -67.95942 | 36130 ft | 493 kts | 344° |
| 2026-05-04 01:48 | 25.35317 | -67.97385 | 36128 ft | 493 kts | 344° |
| 2026-05-04 01:49 | 25.42005 | -67.98820 | 36125 ft | 493 kts | 344° |
| 2026-05-04 01:49 | 25.48747 | -68.00266 | 36134 ft | 494 kts | 343° |
| 2026-05-04 01:50 | 25.55490 | -68.01715 | 36124 ft | 494 kts | 343° |
| 2026-05-04 01:50 | 25.62238 | -68.03166 | 36126 ft | 494 kts | 343° |
| 2026-05-04 01:51 | 25.68992 | -68.04620 | 36128 ft | 494 kts | 343° |
| 2026-05-04 01:51 | 25.75697 | -68.06065 | 36144 ft | 494 kts | 343° |
| 2026-05-04 01:52 | 25.82451 | -68.07523 | 36127 ft | 495 kts | 343° |
| 2026-05-04 01:52 | 25.89215 | -68.08984 | 36122 ft | 495 kts | 343° |
| 2026-05-04 01:53 | 25.95973 | -68.10446 | 36125 ft | 495 kts | 343° |
| 2026-05-04 01:53 | 26.02686 | -68.11900 | 36125 ft | 495 kts | 343° |
| 2026-05-04 01:54 | 26.09450 | -68.13367 | 36125 ft | 495 kts | 343° |
| 2026-05-04 01:54 | 26.16208 | -68.14834 | 36126 ft | 495 kts | 343° |
| 2026-05-04 01:55 | 26.22971 | -68.16304 | 36122 ft | 495 kts | 343° |
| 2026-05-04 01:55 | 26.29727 | -68.17774 | 36123 ft | 495 kts | 343° |
| 2026-05-04 01:56 | 26.36437 | -68.19235 | 36136 ft | 495 kts | 343° |
| 2026-05-04 01:56 | 26.43203 | -68.20711 | 36127 ft | 495 kts | 342° |
| 2026-05-04 01:57 | 26.49958 | -68.22186 | 36118 ft | 495 kts | 342° |
| 2026-05-04 01:57 | 26.56714 | -68.23663 | 36120 ft | 494 kts | 342° |
| 2026-05-04 01:58 | 26.63414 | -68.25130 | 36117 ft | 494 kts | 342° |
| 2026-05-04 01:58 | 26.70164 | -68.26609 | 36122 ft | 494 kts | 342° |
| 2026-05-04 01:59 | 26.76909 | -68.28090 | 36116 ft | 494 kts | 342° |
| 2026-05-04 01:59 | 26.83658 | -68.29572 | 36117 ft | 494 kts | 342° |
| 2026-05-04 02:00 | 26.90355 | -68.31046 | 36120 ft | 494 kts | 342° |
| 2026-05-04 02:00 | 26.97100 | -68.32531 | 36127 ft | 495 kts | 342° |
| 2026-05-04 02:01 | 27.03858 | -68.34021 | 36116 ft | 495 kts | 342° |
| 2026-05-04 02:01 | 27.10613 | -68.35513 | 36120 ft | 495 kts | 342° |
| 2026-05-04 02:02 | 27.17329 | -68.36997 | 36111 ft | 495 kts | 342° |
| 2026-05-04 02:02 | 27.24086 | -68.38492 | 36135 ft | 495 kts | 341° |
| 2026-05-04 02:03 | 27.30858 | -68.39993 | 36122 ft | 496 kts | 341° |
| 2026-05-04 02:03 | 27.37628 | -68.41495 | 36115 ft | 496 kts | 341° |
| 2026-05-04 02:04 | 27.44354 | -68.42989 | 36114 ft | 496 kts | 341° |
| 2026-05-04 02:04 | 27.51131 | -68.44497 | 36115 ft | 496 kts | 341° |
| 2026-05-04 02:05 | 27.57905 | -68.46005 | 36108 ft | 497 kts | 341° |
| 2026-05-04 02:05 | 27.64689 | -68.47518 | 36121 ft | 497 kts | 341° |
| 2026-05-04 02:06 | 27.71428 | -68.49023 | 36123 ft | 497 kts | 341° |
| 2026-05-04 02:06 | 27.78207 | -68.50538 | 36108 ft | 497 kts | 341° |
| 2026-05-04 02:07 | 27.84990 | -68.52057 | 36119 ft | 498 kts | 341° |
| 2026-05-04 02:07 | 27.91786 | -68.53580 | 36121 ft | 498 kts | 341° |
| 2026-05-04 02:08 | 27.98536 | -68.55096 | 36114 ft | 498 kts | 340° |
| 2026-05-04 02:08 | 28.05333 | -68.56626 | 36115 ft | 498 kts | 340° |
| 2026-05-04 02:09 | 28.12139 | -68.58161 | 36125 ft | 499 kts | 340° |
| 2026-05-04 02:09 | 28.18951 | -68.59699 | 36120 ft | 499 kts | 340° |
| 2026-05-04 02:10 | 28.25726 | -68.61231 | 36112 ft | 500 kts | 340° |
| 2026-05-04 02:10 | 28.32543 | -68.62774 | 36107 ft | 500 kts | 340° |
| 2026-05-04 02:11 | 28.39366 | -68.64320 | 36130 ft | 500 kts | 340° |
| 2026-05-04 02:11 | 28.46189 | -68.65869 | 36111 ft | 500 kts | 340° |
| 2026-05-04 02:12 | 28.52965 | -68.67409 | 36109 ft | 500 kts | 340° |
| 2026-05-04 02:12 | 28.59793 | -68.68962 | 36111 ft | 500 kts | 340° |
| 2026-05-04 02:13 | 28.66614 | -68.70517 | 36148 ft | 500 kts | 340° |
| 2026-05-04 02:13 | 28.73447 | -68.72077 | 36122 ft | 501 kts | 340° |
| 2026-05-04 02:14 | 28.80233 | -68.73627 | 36114 ft | 501 kts | 340° |
| 2026-05-04 02:14 | 28.87065 | -68.75188 | 36113 ft | 501 kts | 340° |
| 2026-05-04 02:15 | 28.93900 | -68.76749 | 36109 ft | 501 kts | 340° |
| 2026-05-04 02:15 | 29.00733 | -68.78311 | 36120 ft | 500 kts | 340° |
| 2026-05-04 02:16 | 29.07513 | -68.79865 | 36114 ft | 500 kts | 339° |
| 2026-05-04 02:16 | 29.14338 | -68.81431 | 36119 ft | 500 kts | 339° |
| 2026-05-04 02:17 | 29.21167 | -68.83001 | 36116 ft | 500 kts | 339° |
| 2026-05-04 02:17 | 29.27995 | -68.84572 | 36122 ft | 501 kts | 339° |
| 2026-05-04 02:18 | 29.34781 | -68.86136 | 36139 ft | 501 kts | 339° |
| 2026-05-04 02:18 | 29.41625 | -68.87715 | 36125 ft | 502 kts | 339° |
| 2026-05-04 02:19 | 29.48470 | -68.89297 | 36123 ft | 502 kts | 339° |
| 2026-05-04 02:19 | 29.55326 | -68.90883 | 36130 ft | 503 kts | 339° |
| 2026-05-04 02:20 | 29.62139 | -68.92461 | 36123 ft | 503 kts | 339° |
| 2026-05-04 02:20 | 29.69005 | -68.94054 | 36125 ft | 503 kts | 339° |
| 2026-05-04 02:21 | 29.75867 | -68.95647 | 36125 ft | 503 kts | 339° |
| 2026-05-04 02:21 | 29.82690 | -68.97235 | 36134 ft | 504 kts | 339° |
| 2026-05-04 02:22 | 29.89565 | -68.98838 | 36130 ft | 504 kts | 339° |
| 2026-05-04 02:22 | 29.96450 | -69.00444 | 36134 ft | 505 kts | 339° |
| 2026-05-04 02:23 | 30.03332 | -69.02052 | 36127 ft | 505 kts | 339° |
| 2026-05-04 02:23 | 30.10219 | -69.03663 | 36135 ft | 505 kts | 339° |
| 2026-05-04 02:24 | 30.17110 | -69.05278 | 36130 ft | 506 kts | 339° |
| 2026-05-04 02:24 | 30.23962 | -69.06885 | 36131 ft | 506 kts | 339° |
| 2026-05-04 02:25 | 30.30854 | -69.08504 | 36131 ft | 506 kts | 339° |
| 2026-05-04 02:25 | 30.37753 | -69.10127 | 36149 ft | 506 kts | 339° |
| 2026-05-04 02:26 | 30.44652 | -69.11754 | 36140 ft | 506 kts | 339° |
| 2026-05-04 02:26 | 30.51512 | -69.13372 | 36135 ft | 506 kts | 339° |
| 2026-05-04 02:27 | 30.58408 | -69.15002 | 36136 ft | 506 kts | 339° |
| 2026-05-04 02:27 | 30.65308 | -69.16635 | 36155 ft | 506 kts | 338° |
| 2026-05-04 02:28 | 30.72208 | -69.18271 | 36144 ft | 506 kts | 338° |
| 2026-05-04 02:28 | 30.79066 | -69.19898 | 36150 ft | 506 kts | 338° |
| 2026-05-04 02:29 | 30.85964 | -69.21539 | 36142 ft | 506 kts | 338° |
| 2026-05-04 02:29 | 30.92869 | -69.23182 | 36155 ft | 506 kts | 338° |
| 2026-05-04 02:30 | 30.99771 | -69.24826 | 36143 ft | 506 kts | 338° |
| 2026-05-04 02:30 | 31.06625 | -69.26461 | 36146 ft | 506 kts | 338° |
| 2026-05-04 02:31 | 31.13527 | -69.28110 | 36148 ft | 506 kts | 338° |
| 2026-05-04 02:31 | 31.20423 | -69.29761 | 36156 ft | 507 kts | 338° |
| 2026-05-04 02:32 | 31.27337 | -69.31420 | 36152 ft | 507 kts | 338° |
| 2026-05-04 02:32 | 31.34203 | -69.33068 | 36148 ft | 507 kts | 338° |
| 2026-05-04 02:33 | 31.41117 | -69.34730 | 36147 ft | 507 kts | 337° |
| 2026-05-04 02:33 | 31.48042 | -69.36397 | 36153 ft | 509 kts | 337° |
| 2026-05-04 02:34 | 31.54978 | -69.38071 | 36157 ft | 509 kts | 337° |
| 2026-05-04 02:34 | 31.61925 | -69.39749 | 36152 ft | 510 kts | 337° |
| 2026-05-04 02:35 | 31.68836 | -69.41420 | 36154 ft | 510 kts | 337° |
| 2026-05-04 02:35 | 31.75790 | -69.43104 | 36151 ft | 510 kts | 337° |
| 2026-05-04 02:36 | 31.82751 | -69.44793 | 36156 ft | 511 kts | 337° |
| 2026-05-04 02:36 | 31.89713 | -69.46484 | 36156 ft | 511 kts | 337° |
| 2026-05-04 02:37 | 31.96622 | -69.48166 | 36159 ft | 511 kts | 337° |
| 2026-05-04 02:37 | 32.03580 | -69.49861 | 36157 ft | 511 kts | 335° |
| 2026-05-04 02:38 | 32.10545 | -69.51562 | 36157 ft | 511 kts | 335° |
| 2026-05-04 02:38 | 32.17503 | -69.53263 | 36169 ft | 511 kts | 335° |
| 2026-05-04 02:39 | 32.24415 | -69.54956 | 36162 ft | 511 kts | 335° |
| 2026-05-04 02:39 | 32.31388 | -69.56668 | 36166 ft | 512 kts | 334° |
| 2026-05-04 02:40 | 32.38360 | -69.58380 | 36163 ft | 512 kts | 334° |
| 2026-05-04 02:40 | 32.45282 | -69.60083 | 36166 ft | 511 kts | 334° |
| 2026-05-04 02:41 | 32.52254 | -69.61800 | 36185 ft | 511 kts | 334° |
| 2026-05-04 02:41 | 32.59220 | -69.63521 | 36166 ft | 512 kts | 334° |
| 2026-05-04 02:42 | 32.66191 | -69.65244 | 36162 ft | 511 kts | 334° |
| 2026-05-04 02:42 | 32.73153 | -69.66967 | 36162 ft | 511 kts | 334° |
| 2026-05-04 02:43 | 32.80070 | -69.68683 | 36211 ft | 511 kts | 334° |
| 2026-05-04 02:43 | 32.87028 | -69.70412 | 36168 ft | 510 kts | 334° |
| 2026-05-04 02:44 | 32.93970 | -69.72137 | 36160 ft | 509 kts | 334° |
| 2026-05-04 02:44 | 33.00851 | -69.73851 | 36163 ft | 508 kts | 334° |
| 2026-05-04 02:45 | 33.07758 | -69.75576 | 36175 ft | 507 kts | 334° |
| 2026-05-04 02:45 | 33.14661 | -69.77303 | 36166 ft | 506 kts | 334° |
| 2026-05-04 02:46 | 33.21546 | -69.79027 | 36161 ft | 505 kts | 334° |
| 2026-05-04 02:46 | 33.28424 | -69.80753 | 36163 ft | 505 kts | 334° |
| 2026-05-04 02:47 | 33.35245 | -69.82468 | 36169 ft | 505 kts | 334° |
| 2026-05-04 02:47 | 33.42109 | -69.84199 | 36170 ft | 504 kts | 334° |
| 2026-05-04 02:48 | 33.48971 | -69.85931 | 36162 ft | 503 kts | 334° |
| 2026-05-04 02:48 | 33.55827 | -69.87666 | 36167 ft | 504 kts | 334° |
| 2026-05-04 02:49 | 33.62632 | -69.89392 | 36166 ft | 504 kts | 334° |
| 2026-05-04 02:49 | 33.69493 | -69.91131 | 36161 ft | 503 kts | 334° |
| 2026-05-04 02:50 | 33.76338 | -69.92869 | 36161 ft | 503 kts | 334° |
| 2026-05-04 02:50 | 33.83134 | -69.94599 | 36208 ft | 502 kts | 333° |
| 2026-05-04 02:51 | 33.89970 | -69.96344 | 36168 ft | 502 kts | 333° |
| 2026-05-04 02:51 | 33.96807 | -69.98091 | 36162 ft | 502 kts | 333° |
| 2026-05-04 02:52 | 34.03632 | -69.99837 | 36162 ft | 501 kts | 333° |
| 2026-05-04 02:52 | 34.10408 | -70.01574 | 36219 ft | 501 kts | 333° |
| 2026-05-04 02:53 | 34.17242 | -70.03329 | 36167 ft | 502 kts | 333° |
| 2026-05-04 02:53 | 34.24071 | -70.05084 | 36163 ft | 501 kts | 333° |
| 2026-05-04 02:54 | 34.30884 | -70.06838 | 36167 ft | 500 kts | 333° |
| 2026-05-04 02:54 | 34.36542 | -70.08297 | 36165 ft | 500 kts | 333° |
| 2026-05-04 02:55 | 34.47850 | -70.11221 | 36165 ft | 500 kts | 333° |
| 2026-05-04 02:56 | 34.53502 | -70.12685 | 36170 ft | 500 kts | 333° |
| 2026-05-04 02:56 | 34.60302 | -70.14450 | 36207 ft | 500 kts | 333° |
| 2026-05-04 02:57 | 34.68222 | -70.16509 | 36183 ft | 501 kts | 333° |
| 2026-05-04 02:57 | 34.75031 | -70.18281 | 36164 ft | 500 kts | 333° |
| 2026-05-04 02:58 | 34.81841 | -70.20056 | 36167 ft | 500 kts | 333° |
| 2026-05-04 02:58 | 34.87498 | -70.21534 | 36218 ft | 501 kts | 333° |
| 2026-05-04 02:59 | 34.94321 | -70.23321 | 36178 ft | 501 kts | 333° |
| 2026-05-04 02:59 | 35.02244 | -70.25394 | 36172 ft | 500 kts | 333° |
| 2026-05-04 03:00 | 35.07895 | -70.26876 | 36158 ft | 500 kts | 333° |
| 2026-05-04 03:00 | 35.14689 | -70.28663 | 36181 ft | 500 kts | 332° |
| 2026-05-04 03:01 | 35.21485 | -70.30454 | 36170 ft | 499 kts | 333° |
| 2026-05-04 03:01 | 35.28267 | -70.32243 | 36156 ft | 498 kts | 332° |
| 2026-05-04 03:02 | 35.34998 | -70.34022 | 36163 ft | 498 kts | 332° |
| 2026-05-04 03:02 | 35.41771 | -70.35816 | 36168 ft | 498 kts | 332° |
| 2026-05-04 03:03 | 35.48540 | -70.37611 | 36164 ft | 497 kts | 332° |
| 2026-05-04 03:03 | 35.55303 | -70.39407 | 36162 ft | 497 kts | 332° |
| 2026-05-04 03:04 | 35.62060 | -70.41206 | 36219 ft | 496 kts | 333° |
| 2026-05-04 03:04 | 35.68760 | -70.42992 | 36168 ft | 496 kts | 333° |
| 2026-05-04 03:05 | 35.75502 | -70.44792 | 36164 ft | 495 kts | 332° |
| 2026-05-04 03:05 | 35.82230 | -70.46589 | 36153 ft | 494 kts | 332° |
| 2026-05-04 03:06 | 35.88898 | -70.48372 | 36172 ft | 494 kts | 333° |
| 2026-05-04 03:06 | 35.95607 | -70.50170 | 36168 ft | 492 kts | 333° |
| 2026-05-04 03:07 | 36.02295 | -70.51965 | 36161 ft | 492 kts | 333° |
| 2026-05-04 03:07 | 36.08970 | -70.53761 | 36165 ft | 491 kts | 333° |
| 2026-05-04 03:08 | 36.15640 | -70.55560 | 36186 ft | 491 kts | 333° |
| 2026-05-04 03:08 | 36.22274 | -70.57352 | 36169 ft | 491 kts | 333° |
| 2026-05-04 03:09 | 36.28935 | -70.59152 | 36163 ft | 490 kts | 333° |
| 2026-05-04 03:09 | 36.35589 | -70.60953 | 36205 ft | 489 kts | 334° |
| 2026-05-04 03:10 | 36.42195 | -70.62748 | 36172 ft | 489 kts | 334° |
| 2026-05-04 03:10 | 36.48847 | -70.64556 | 36165 ft | 489 kts | 334° |
| 2026-05-04 03:11 | 36.55492 | -70.66365 | 36161 ft | 489 kts | 334° |
| 2026-05-04 03:11 | 36.62143 | -70.68181 | 36198 ft | 490 kts | 334° |
| 2026-05-04 03:12 | 36.68761 | -70.69990 | 36162 ft | 490 kts | 334° |
| 2026-05-04 03:12 | 36.75424 | -70.71813 | 36147 ft | 490 kts | 334° |
| 2026-05-04 03:13 | 36.82088 | -70.73639 | 36147 ft | 490 kts | 334° |
| 2026-05-04 03:13 | 36.88740 | -70.75467 | 36148 ft | 490 kts | 334° |
| 2026-05-04 03:14 | 36.95346 | -70.77285 | 36153 ft | 489 kts | 334° |
| 2026-05-04 03:14 | 37.02000 | -70.79120 | 36154 ft | 489 kts | 334° |
| 2026-05-04 03:15 | 37.08649 | -70.80957 | 36171 ft | 490 kts | 334° |
| 2026-05-04 03:15 | 37.15305 | -70.82799 | 36154 ft | 489 kts | 334° |
| 2026-05-04 03:16 | 37.21950 | -70.84640 | 36147 ft | 489 kts | 334° |
| 2026-05-04 03:16 | 37.28544 | -70.86471 | 36143 ft | 489 kts | 334° |
| 2026-05-04 03:17 | 37.35182 | -70.88319 | 36186 ft | 488 kts | 335° |
| 2026-05-04 03:17 | 37.41811 | -70.90166 | 36144 ft | 487 kts | 335° |
| 2026-05-04 03:18 | 37.48412 | -70.92007 | 36126 ft | 485 kts | 335° |
| 2026-05-04 03:18 | 37.54951 | -70.93837 | 36143 ft | 484 kts | 335° |
| 2026-05-04 03:19 | 37.61516 | -70.95679 | 36142 ft | 483 kts | 335° |
| 2026-05-04 03:19 | 37.68054 | -70.97582 | 36126 ft | 476 kts | 331° |
| 2026-05-04 03:20 | 37.74094 | -71.00532 | 36132 ft | 457 kts | 321° |
| 2026-05-04 03:20 | 37.79506 | -71.04431 | 36187 ft | 449 kts | 317° |
| 2026-05-04 03:21 | 37.84893 | -71.08482 | 36126 ft | 451 kts | 317° |
| 2026-05-04 03:21 | 37.90294 | -71.12522 | 36122 ft | 451 kts | 317° |
| 2026-05-04 03:22 | 37.95709 | -71.16552 | 36113 ft | 451 kts | 318° |
| 2026-05-04 03:22 | 38.01128 | -71.20584 | 36115 ft | 451 kts | 318° |
| 2026-05-04 03:23 | 38.06510 | -71.24594 | 36144 ft | 452 kts | 318° |
| 2026-05-04 03:23 | 38.11925 | -71.28637 | 36122 ft | 452 kts | 318° |
| 2026-05-04 03:24 | 38.17345 | -71.32692 | 36106 ft | 452 kts | 318° |
| 2026-05-04 03:24 | 38.22757 | -71.36747 | 36106 ft | 451 kts | 318° |
| 2026-05-04 03:25 | 38.28126 | -71.40777 | 36103 ft | 451 kts | 318° |
| 2026-05-04 03:25 | 38.33533 | -71.44844 | 36116 ft | 452 kts | 319° |
| 2026-05-04 03:26 | 38.38943 | -71.48919 | 36102 ft | 452 kts | 319° |
| 2026-05-04 03:26 | 38.44355 | -71.53003 | 36098 ft | 452 kts | 318° |
| 2026-05-04 03:27 | 38.49722 | -71.57060 | 36105 ft | 451 kts | 319° |
| 2026-05-04 03:27 | 38.55122 | -71.61149 | 36091 ft | 451 kts | 319° |
| 2026-05-04 03:28 | 38.60528 | -71.65251 | 36100 ft | 452 kts | 319° |
| 2026-05-04 03:28 | 38.65930 | -71.69356 | 36084 ft | 451 kts | 319° |
| 2026-05-04 03:29 | 38.71291 | -71.73437 | 36085 ft | 451 kts | 319° |
| 2026-05-04 03:29 | 38.76673 | -71.77542 | 36081 ft | 450 kts | 319° |
| 2026-05-04 03:30 | 38.82056 | -71.81656 | 36114 ft | 450 kts | 319° |
| 2026-05-04 03:30 | 38.87443 | -71.85781 | 36086 ft | 451 kts | 319° |
| 2026-05-04 03:31 | 38.92824 | -71.89906 | 36078 ft | 451 kts | 319° |
| 2026-05-04 03:31 | 38.98148 | -71.94036 | 36076 ft | 448 kts | 317° |
| 2026-05-04 03:32 | 39.03024 | -71.98832 | 36071 ft | 438 kts | 311° |
| 2026-05-04 03:32 | 39.07727 | -72.03820 | 36102 ft | 438 kts | 312° |
| 2026-05-04 03:33 | 39.12457 | -72.08791 | 36071 ft | 439 kts | 312° |
| 2026-05-04 03:33 | 39.14854 | -72.11310 | 35292 ft | 451 kts | 312° |
| 2026-05-04 03:33 | 39.17236 | -72.13809 | 34734 ft | 446 kts | 311° |
| 2026-05-04 03:33 | 39.19624 | -72.16310 | 34143 ft | 439 kts | 311° |
| 2026-05-04 03:34 | 39.21979 | -72.18781 | 33348 ft | 431 kts | 311° |
| 2026-05-04 03:34 | 39.24283 | -72.21199 | 32087 ft | 426 kts | 311° |
| 2026-05-04 03:34 | 39.26593 | -72.23646 | 30861 ft | 433 kts | 311° |
| 2026-05-04 03:34 | 39.28909 | -72.26099 | 30131 ft | 428 kts | 312° |
| 2026-05-04 03:35 | 39.31204 | -72.28520 | 29292 ft | 424 kts | 312° |
| 2026-05-04 03:35 | 39.33469 | -72.30915 | 28592 ft | 417 kts | 312° |
| 2026-05-04 03:35 | 39.35667 | -72.33241 | 27943 ft | 411 kts | 313° |
| 2026-05-04 03:35 | 39.37862 | -72.35566 | 27294 ft | 406 kts | 313° |
| 2026-05-04 03:36 | 39.40030 | -72.37865 | 26643 ft | 401 kts | 313° |
| 2026-05-04 03:36 | 39.42176 | -72.40145 | 26017 ft | 397 kts | 313° |
| 2026-05-04 03:36 | 39.44296 | -72.42398 | 25406 ft | 393 kts | 313° |
| 2026-05-04 03:36 | 39.46397 | -72.44633 | 24801 ft | 389 kts | 313° |
| 2026-05-04 03:37 | 39.48475 | -72.46846 | 24179 ft | 386 kts | 314° |
| 2026-05-04 03:37 | 39.50542 | -72.49048 | 23582 ft | 383 kts | 314° |
| 2026-05-04 03:37 | 39.52562 | -72.51203 | 22898 ft | 380 kts | 314° |
| 2026-05-04 03:37 | 39.54592 | -72.53369 | 22283 ft | 376 kts | 314° |
| 2026-05-04 03:38 | 39.56601 | -72.55513 | 21678 ft | 372 kts | 315° |
| 2026-05-04 03:38 | 39.58590 | -72.57638 | 21112 ft | 369 kts | 315° |
| 2026-05-04 03:38 | 39.60568 | -72.59754 | 20502 ft | 367 kts | 315° |
| 2026-05-04 03:38 | 39.62531 | -72.61855 | 19932 ft | 365 kts | 316° |
| 2026-05-04 03:39 | 39.64484 | -72.63948 | 19357 ft | 364 kts | 316° |
| 2026-05-04 03:39 | 39.66430 | -72.66033 | 18778 ft | 362 kts | 316° |
| 2026-05-04 03:39 | 39.68347 | -72.68089 | 18218 ft | 361 kts | 316° |
| 2026-05-04 03:39 | 39.70282 | -72.70166 | 17571 ft | 361 kts | 317° |
| 2026-05-04 03:40 | 39.72207 | -72.72233 | 17044 ft | 357 kts | 317° |
| 2026-05-04 03:40 | 39.74117 | -72.74286 | 16468 ft | 356 kts | 317° |
| 2026-05-04 03:40 | 39.76023 | -72.76336 | 15894 ft | 355 kts | 317° |
| 2026-05-04 03:40 | 39.77923 | -72.78381 | 15330 ft | 355 kts | 317° |
| 2026-05-04 03:41 | 39.79821 | -72.80425 | 14754 ft | 354 kts | 318° |
| 2026-05-04 03:41 | 39.81721 | -72.82473 | 14178 ft | 354 kts | 318° |
| 2026-05-04 03:41 | 39.83627 | -72.84478 | 13854 ft | 351 kts | 320° |
| 2026-05-04 03:41 | 39.85566 | -72.86380 | 13567 ft | 358 kts | 322° |
| 2026-05-04 03:42 | 39.87583 | -72.88313 | 13253 ft | 362 kts | 322° |
| 2026-05-04 03:42 | 39.89608 | -72.90247 | 12933 ft | 360 kts | 322° |
| 2026-05-04 03:42 | 39.91618 | -72.92173 | 12635 ft | 357 kts | 322° |
| 2026-05-04 03:42 | 39.93601 | -72.94082 | 12348 ft | 353 kts | 322° |
| 2026-05-04 03:43 | 39.95566 | -72.95983 | 12060 ft | 350 kts | 322° |
| 2026-05-04 03:43 | 39.97510 | -72.97868 | 11643 ft | 347 kts | 322° |
| 2026-05-04 03:43 | 39.99431 | -72.99736 | 11318 ft | 341 kts | 322° |
| 2026-05-04 03:43 | 40.01328 | -73.01584 | 11069 ft | 341 kts | 322° |
| 2026-05-04 03:44 | 40.03192 | -73.03402 | 10898 ft | 334 kts | 322° |
| 2026-05-04 03:44 | 40.05021 | -73.05186 | 10679 ft | 324 kts | 322° |
| 2026-05-04 03:44 | 40.06787 | -73.06911 | 10569 ft | 310 kts | 323° |
| 2026-05-04 03:44 | 40.08478 | -73.08563 | 10489 ft | 297 kts | 322° |
| 2026-05-04 03:45 | 40.10098 | -73.10148 | 10407 ft | 285 kts | 322° |
| 2026-05-04 03:45 | 40.11650 | -73.11667 | 10057 ft | 270 kts | 322° |
| 2026-05-04 03:45 | 40.13109 | -73.13095 | 9630 ft | 258 kts | 322° |
| 2026-05-04 03:45 | 40.14540 | -73.14496 | 9331 ft | 255 kts | 322° |
| 2026-05-04 03:46 | 40.15922 | -73.15850 | 9098 ft | 250 kts | 322° |
| 2026-05-04 03:46 | 40.17296 | -73.17198 | 8891 ft | 244 kts | 322° |
| 2026-05-04 03:46 | 40.18639 | -73.18515 | 8698 ft | 240 kts | 322° |
| 2026-05-04 03:46 | 40.19965 | -73.19817 | 8494 ft | 239 kts | 322° |
| 2026-05-04 03:47 | 40.21294 | -73.21123 | 8313 ft | 239 kts | 322° |
| 2026-05-04 03:47 | 40.22623 | -73.22430 | 8121 ft | 239 kts | 322° |
| 2026-05-04 03:47 | 40.23952 | -73.23736 | 7928 ft | 239 kts | 322° |
| 2026-05-04 03:47 | 40.25284 | -73.25047 | 7737 ft | 240 kts | 322° |
| 2026-05-04 03:48 | 40.26602 | -73.26345 | 7546 ft | 240 kts | 322° |
| 2026-05-04 03:48 | 40.27939 | -73.27661 | 7353 ft | 241 kts | 321° |
| 2026-05-04 03:48 | 40.29272 | -73.28974 | 7155 ft | 240 kts | 321° |
| 2026-05-04 03:48 | 40.30610 | -73.30294 | 6960 ft | 240 kts | 321° |
| 2026-05-04 03:49 | 40.31945 | -73.31609 | 6762 ft | 240 kts | 321° |
| 2026-05-04 03:49 | 40.33273 | -73.32920 | 6567 ft | 239 kts | 321° |
| 2026-05-04 03:49 | 40.34599 | -73.34229 | 6385 ft | 238 kts | 321° |
| 2026-05-04 03:49 | 40.35918 | -73.35533 | 6188 ft | 237 kts | 321° |
| 2026-05-04 03:50 | 40.37236 | -73.36835 | 5985 ft | 236 kts | 321° |
| 2026-05-04 03:50 | 40.38542 | -73.38126 | 5789 ft | 235 kts | 321° |
| 2026-05-04 03:50 | 40.39826 | -73.39396 | 5595 ft | 234 kts | 321° |
| 2026-05-04 03:50 | 40.41117 | -73.40674 | 5407 ft | 232 kts | 320° |
| 2026-05-04 03:51 | 40.42403 | -73.41947 | 5219 ft | 231 kts | 320° |
| 2026-05-04 03:51 | 40.43683 | -73.43216 | 5033 ft | 229 kts | 320° |
| 2026-05-04 03:51 | 40.44950 | -73.44472 | 4849 ft | 228 kts | 320° |
| 2026-05-04 03:51 | 40.46213 | -73.45725 | 4665 ft | 227 kts | 320° |
| 2026-05-04 03:52 | 40.47471 | -73.46974 | 4466 ft | 226 kts | 320° |
| 2026-05-04 03:52 | 40.48709 | -73.48202 | 4290 ft | 226 kts | 320° |
| 2026-05-04 03:52 | 40.49962 | -73.49445 | 4103 ft | 224 kts | 320° |
| 2026-05-04 03:52 | 40.51187 | -73.50662 | 3912 ft | 218 kts | 320° |
| 2026-05-04 03:53 | 40.52373 | -73.51839 | 3735 ft | 210 kts | 319° |
| 2026-05-04 03:53 | 40.53515 | -73.52973 | 3571 ft | 200 kts | 317° |
| 2026-05-04 03:53 | 40.54408 | -73.54253 | 3435 ft | 182 kts | 302° |
| 2026-05-04 03:53 | 40.55092 | -73.55570 | 3356 ft | 167 kts | 300° |
| 2026-05-04 03:54 | 40.55684 | -73.56803 | 3270 ft | 163 kts | 299° |
| 2026-05-04 03:54 | 40.56280 | -73.58092 | 3156 ft | 166 kts | 298° |
| 2026-05-04 03:54 | 40.56877 | -73.59399 | 2949 ft | 166 kts | 298° |
| 2026-05-04 03:54 | 40.57463 | -73.60687 | 2732 ft | 162 kts | 297° |
| 2026-05-04 03:55 | 40.58040 | -73.61958 | 2519 ft | 162 kts | 297° |
| 2026-05-04 03:55 | 40.58620 | -73.63237 | 2298 ft | 163 kts | 297° |
| 2026-05-04 03:55 | 40.59201 | -73.64520 | 2082 ft | 163 kts | 297° |
| 2026-05-04 03:55 | 40.59781 | -73.65799 | 1855 ft | 162 kts | 296° |
| 2026-05-04 03:56 | 40.60333 | -73.67014 | 1627 ft | 151 kts | 296° |
| 2026-05-04 03:56 | 40.60848 | -73.68148 | 1446 ft | 137 kts | 295° |
| 2026-05-04 03:56 | 40.61318 | -73.69187 | 1288 ft | 131 kts | 295° |
| 2026-05-04 03:56 | 40.61788 | -73.70228 | 1101 ft | 133 kts | 295° |
| 2026-05-04 03:57 | 40.62268 | -73.71287 | 909 ft | 135 kts | 295° |
| 2026-05-04 03:57 | 40.62754 | -73.72365 | 699 ft | 139 kts | 296° |
| 2026-05-04 03:57 | 40.63254 | -73.73469 | 553 ft | 141 kts | 296° |
| 2026-05-04 03:57 | 40.63759 | -73.74583 | 338 ft | 142 kts | 297° |
| 2026-05-04 03:58 | 40.64747 | -73.76753 | 32 ft | 132 kts | 297° |
| 2026-05-04 03:58 | 40.65153 | -73.77647 | 26 ft | 89 kts | 301° |
| 2026-05-04 03:58 | 40.65377 | -73.78144 | 27 ft | 35 kts | 301° |
| 2026-05-04 03:59 | 40.65427 | -73.78283 | 27 ft | 13 kts | 274° |
| 2026-05-04 03:59 | 40.65410 | -73.78355 | 29 ft | 3 kts | 230° |
| 2026-05-04 03:59 | 40.65391 | -73.78370 | 29 ft | 3 kts | 202° |
| 2026-05-04 03:59 | 40.65370 | -73.78366 | 29 ft | 3 kts | 156° |
| 2026-05-04 04:00 | 40.65348 | -73.78341 | 29 ft | 6 kts | 130° |
| 2026-05-04 04:00 | 40.65309 | -73.78270 | 31 ft | 12 kts | 123° |
| 2026-05-04 04:00 | 40.65265 | -73.78176 | 30 ft | 13 kts | 121° |
| 2026-05-04 04:00 | 40.65214 | -73.78062 | 26 ft | 16 kts | 121° |
| 2026-05-04 04:01 | 40.65156 | -73.77932 | 29 ft | 17 kts | 121° |
| 2026-05-04 04:01 | 40.65096 | -73.77802 | 24 ft | 17 kts | 121° |
| 2026-05-04 04:01 | 40.65036 | -73.77672 | 27 ft | 17 kts | 120° |
| 2026-05-04 04:01 | 40.64985 | -73.77558 | 27 ft | 9 kts | 121° |
| 2026-05-04 04:02 | 40.64945 | -73.77513 | 28 ft | 8 kts | 180° |
| 2026-05-04 04:02 | 40.64905 | -73.77535 | 26 ft | 6 kts | 190° |
| 2026-05-04 04:02 | 40.64874 | -73.77507 | 27 ft | 6 kts | 129° |
| 2026-05-04 04:02 | 40.64852 | -73.77464 | 32 ft | 6 kts | 122° |
| 2026-05-04 04:03 | 40.64821 | -73.77395 | 28 ft | 12 kts | 121° |
| 2026-05-04 04:03 | 40.64773 | -73.77290 | 27 ft | 14 kts | 121° |
| 2026-05-04 04:03 | 40.64723 | -73.77181 | 27 ft | 14 kts | 121° |
| 2026-05-04 04:03 | 40.64655 | -73.77097 | 27 ft | 14 kts | 160° |
| 2026-05-04 04:04 | 40.64559 | -73.77088 | 26 ft | 14 kts | 181° |
| 2026-05-04 04:04 | 40.64464 | -73.77094 | 27 ft | 14 kts | 189° |
| 2026-05-04 04:04 | 40.64377 | -73.77146 | 27 ft | 14 kts | 209° |
| 2026-05-04 04:04 | 40.64294 | -73.77210 | 28 ft | 14 kts | 211° |
| 2026-05-04 04:05 | 40.64213 | -73.77274 | 30 ft | 14 kts | 210° |
| 2026-05-04 04:05 | 40.64130 | -73.77338 | 29 ft | 14 kts | 211° |
| 2026-05-04 04:05 | 40.64049 | -73.77403 | 27 ft | 14 kts | 211° |
| 2026-05-04 04:05 | 40.63966 | -73.77467 | 27 ft | 14 kts | 210° |
| 2026-05-04 04:06 | 40.63884 | -73.77531 | 28 ft | 14 kts | 211° |
| 2026-05-04 04:06 | 40.63812 | -73.77588 | 28 ft | 8 kts | 211° |
| 2026-05-04 04:06 | 40.63770 | -73.77625 | 29 ft | 6 kts | 230° |
| 2026-05-04 04:06 | 40.63775 | -73.77673 | 27 ft | 6 kts | 307° |
| 2026-05-04 04:07 | 40.63803 | -73.77710 | 28 ft | 6 kts | 319° |
| 2026-05-04 04:07 | 40.63835 | -73.77742 | 28 ft | 6 kts | 324° |
| 2026-05-04 04:07 | 40.63885 | -73.77788 | 28 ft | 11 kts | 324° |
| 2026-05-04 04:07 | 40.63951 | -73.77842 | 28 ft | 11 kts | 330° |
| 2026-05-04 04:08 | 40.64009 | -73.77880 | 28 ft | 7 kts | 346° |
| 2026-05-04 04:08 | 40.64059 | -73.77889 | 28 ft | 7 kts | 343° |
| 2026-05-04 04:08 | 40.64104 | -73.77918 | 28 ft | 7 kts | 332° |
| 2026-05-04 04:08 | 40.64150 | -73.77921 | 28 ft | 7 kts | 26° |
| 2026-05-04 04:09 | 40.64184 | -73.77893 | 28 ft | 2 kts | 28° |
| 2026-05-04 04:09 | 40.64199 | -73.77883 | 28 ft | 2 kts | 29° |
| 2026-05-04 04:09 | 40.64210 | -73.77875 | 28 ft | 0 kts | 28° |
| 2026-05-04 04:09 | 40.64211 | -73.77874 | 28 ft | 0 kts | 27° |
| 2026-05-04 04:10 | 40.64212 | -73.77873 | 28 ft | 0 kts | 27° |